Data for 09/21/2011

Time Sea-Level Adjusted Pressure Absolute Pressure Temperature Relative Humidity Dew Point Precipitation   
(mb) (inHg) (mb) (inHg) (C) (F) (%) (C) (F) (mm) (in)
00:01 1025 30.27 855 25.25 8.4 47 45 -3 26.6 -90 -3.543
00:02 1025 30.27 855 25.25 8.4 47 46 -2.7 27.2 -90 -3.543
00:03 1025 30.27 855 25.25 8.3 46.9 45 -2.9 26.9 -90 -3.543
00:04 1025 30.27 855 25.25 8.3 46.9 46 -2.7 27.2 -90 -3.543
00:05 1025 30.27 855 25.25 8.3 46.9 45 -2.8 26.9 -90 -3.543
00:06 1025 30.27 855 25.25 8.3 46.9 45 -2.9 26.7 -90 -3.543
00:07 1025 30.27 855 25.25 8.3 47 46 -2.5 27.5 -90 -3.543
00:08 1025 30.27 855 25.25 8.2 46.8 46 -2.8 27 -90 -3.543
00:09 1025 30.27 855 25.25 8.3 46.9 46 -2.8 27 -90 -3.543
00:10 1025 30.27 854 25.22 8.3 46.9 45 -2.9 26.8 -90 -3.543
00:11 1025 30.27 855 25.25 8.4 47 45 -2.7 27.1 -90 -3.543
00:12 1025 30.27 855 25.25 8.4 47.1 45 -2.8 27 -90 -3.543
00:13 1025 30.27 855 25.25 8.4 47.1 46 -2.7 27.2 -90 -3.543
00:14 1025 30.27 855 25.25 8.3 46.9 45 -2.8 27 -90 -3.543
00:15 1025 30.27 855 25.25 8.3 46.9 46 -2.8 27 -90 -3.543
00:16 1025 30.27 855 25.25 8.3 46.9 45 -2.8 26.9 -90 -3.543
00:17 1025 30.27 855 25.25 8.2 46.8 46 -2.8 27 -89.9 -3.539
00:18 1025 30.27 855 25.25 8.2 46.7 46 -2.7 27.2 -89.9 -3.539
00:19 1025 30.27 855 25.25 8.2 46.7 46 -2.8 26.9 -89.9 -3.539
00:20 1025 30.27 855 25.25 8.2 46.7 46 -2.7 27.1 -89.9 -3.539
00:21 1025 30.27 854 25.22 8.2 46.8 45 -2.9 26.8 -89.9 -3.539
00:22 1025 30.27 855 25.25 8.2 46.8 46 -2.8 27 -89.9 -3.539
00:23 1025 30.27 854 25.22 8.2 46.8 46 -2.7 27.1 -89.9 -3.539
00:24 1025 30.27 854 25.22 8.3 46.9 45 -2.9 26.8 -89.9 -3.539
00:25 1025 30.27 854 25.22 8.3 46.9 46 -2.8 27 -89.9 -3.539
00:26 1025 30.27 854 25.22 8.3 46.9 47 -2.5 27.5 -89.9 -3.539
00:27 1025 30.27 854 25.22 8.2 46.7 45 -2.9 26.7 -89.9 -3.539
00:28 1025 30.27 854 25.22 8.2 46.8 45 -2.9 26.7 -89.9 -3.539
00:29 1025 30.27 854 25.22 8.3 47 45 -3 26.5 -89.9 -3.539
00:30 1025 30.27 854 25.22 8.3 47 45 -2.7 27.1 -89.9 -3.539
00:31 1025 30.27 854 25.22 8.3 46.9 46 -2.7 27.2 -89.9 -3.539
00:32 1025 30.27 854 25.22 8.2 46.8 46 -2.7 27.1 -89.9 -3.539
00:33 1025 30.27 854 25.22 8.2 46.8 46 -2.8 27 -89.9 -3.539
00:34 1025 30.27 854 25.22 8.3 46.9 46 -2.7 27.1 -89.9 -3.539
00:35 1025 30.27 854 25.22 8.2 46.8 46 -2.8 27 -89.9 -3.539
00:36 1025 30.27 854 25.22 8.3 47 45 -2.8 26.9 -89.9 -3.539
00:37 1025 30.27 854 25.22 8.3 46.9 46 -2.7 27.1 -89.9 -3.539
00:38 1025 30.27 854 25.22 8.3 46.9 46 -2.7 27.1 -89.9 -3.539
00:39 1025 30.27 854 25.22 8.2 46.7 45 -2.9 26.8 -89.9 -3.539
00:40 1025 30.27 854 25.22 8.2 46.8 46 -2.6 27.3 -89.9 -3.539
00:41 1025 30.27 854 25.22 8.2 46.7 45 -2.9 26.8 -89.9 -3.539
00:42 1025 30.27 854 25.22 8.1 46.6 46 -2.8 27 -89.9 -3.539
00:43 1025 30.27 854 25.22 8.1 46.6 46 -2.8 26.9 -89.9 -3.539
00:44 1025 30.27 854 25.22 8.1 46.5 47 -2.6 27.2 -89.9 -3.539
00:45 1025 30.27 854 25.22 8 46.5 46 -2.9 26.9 -89.9 -3.539
00:46 1025 30.27 854 25.22 8.1 46.6 46 -2.8 27 -89.9 -3.539
00:47 1025 30.27 854 25.22 8.1 46.6 46 -2.7 27.2 -89.9 -3.539
00:48 1025 30.27 854 25.22 8 46.4 47 -2.7 27.1 -89.9 -3.539
00:49 1025 30.27 854 25.22 7.9 46.2 47 -2.8 27 -89.9 -3.539
00:50 1025 30.27 854 25.22 7.9 46.3 47 -2.8 27 -89.9 -3.539
00:51 1025 30.27 854 25.22 8 46.3 46 -3 26.6 -89.9 -3.539
00:52 1025 30.27 854 25.22 8 46.5 47 -2.6 27.2 -89.9 -3.539
00:53 1025 30.27 854 25.22 8 46.4 46 -2.8 26.9 -89.9 -3.539
00:54 1025 30.27 854 25.22 8.1 46.5 46 -2.8 27 -89.9 -3.539
00:55 1025 30.27 854 25.22 8 46.4 47 -2.7 27.1 -89.9 -3.539
00:56 1025 30.27 854 25.22 8 46.5 46 -2.8 27 -89.9 -3.539
00:57 1025 30.27 854 25.22 8 46.5 46 -2.8 27 -89.9 -3.539
00:58 1025 30.27 854 25.22 8 46.5 47 -2.7 27.2 -89.9 -3.539
00:59 1025 30.27 854 25.22 8 46.3 46 -2.8 26.9 -89.9 -3.539
01:00 1025 30.27 854 25.22 7.9 46.2 47 -2.6 27.3 -89.9 -3.539
01:01 1025 30.27 854 25.22 7.9 46.1 48 -2.6 27.4 -89.9 -3.539
01:02 1025 30.27 854 25.22 7.8 46 47 -2.8 26.9 -89.9 -3.539
01:03 1025 30.27 854 25.22 7.9 46.1 47 -2.8 27 -89.9 -3.539
01:04 1025 30.27 854 25.22 7.9 46.2 47 -2.8 27 -89.9 -3.539
01:05 1025 30.27 854 25.22 7.9 46.2 47 -2.7 27.1 -89.9 -3.539
01:06 1025 30.27 855 25.25 7.9 46.2 47 -2.8 26.9 -89.9 -3.539
01:07 1025 30.27 855 25.25 7.9 46.3 46 -2.8 26.9 -89.9 -3.539
01:08 1025 30.27 855 25.25 7.9 46.3 47 -2.8 27 -89.9 -3.539
01:09 1025 30.27 855 25.25 7.8 46.1 47 -2.7 27.2 -89.9 -3.539
01:10 1025 30.27 855 25.25 7.7 45.9 48 -2.5 27.5 -89.9 -3.539
01:11 1025 30.27 855 25.25 7.6 45.7 49 -2.5 27.5 -89.9 -3.539
01:12 1025 30.27 854 25.22 7.5 45.6 48 -2.7 27.1 -89.9 -3.539
01:13 1025 30.27 854 25.22 7.6 45.7 48 -2.8 27 -89.9 -3.539
01:14 1025 30.27 854 25.22 7.6 45.7 47 -2.8 26.9 -89.9 -3.539
01:15 1025 30.27 854 25.22 7.6 45.8 48 -2.7 27.1 -89.9 -3.539
01:16 1025 30.27 854 25.22 7.7 45.8 47 -2.9 26.8 -90 -3.543
01:17 1025 30.27 854 25.22 7.8 46 48 -2.6 27.3 -90 -3.543
01:18 1025 30.27 854 25.22 7.7 45.9 47 -2.8 26.9 -89.9 -3.539
01:19 1025 30.27 854 25.22 7.7 45.9 47 -2.8 27 -90 -3.543
01:20 1025 30.27 854 25.22 7.8 46 48 -2.6 27.3 -90 -3.543
01:21 1025 30.27 854 25.22 7.7 45.9 48 -2.7 27.2 -90 -3.543
01:22 1025 30.27 854 25.22 7.6 45.7 48 -2.8 27 -90 -3.543
01:23 1025 30.27 854 25.22 7.6 45.6 49 -2.6 27.4 -90 -3.543
01:24 1025 30.27 854 25.22 7.5 45.5 48 -2.7 27.2 -90 -3.543
01:25 1025 30.27 854 25.22 7.6 45.6 47 -2.9 26.7 -90 -3.543
01:26 1025 30.27 854 25.22 7.7 45.8 47 -2.8 27 -90 -3.543
01:27 1025 30.27 854 25.22 7.7 45.8 48 -2.7 27.1 -90 -3.543
01:28 1025 30.27 854 25.22 7.6 45.7 48 -2.7 27.2 -90 -3.543
01:29 1025 30.27 854 25.22 7.5 45.5 48 -2.7 27.1 -90 -3.543
01:30 1025 30.27 854 25.22 7.5 45.4 49 -2.5 27.5 -90 -3.543
01:31 1025 30.27 854 25.22 7.4 45.3 49 -2.6 27.4 -90 -3.543
01:32 1025 30.27 854 25.22 7.3 45.1 49 -2.7 27.1 -90 -3.543
01:33 1025 30.27 854 25.22 7.4 45.2 48 -2.8 26.9 -90 -3.543
01:34 1025 30.27 854 25.22 7.4 45.2 49 -2.6 27.3 -90 -3.543
01:35 1025 30.27 854 25.22 7.3 45.1 49 -2.7 27.2 -90 -3.543
01:36 1025 30.27 854 25.22 7.3 45.1 50 -2.6 27.4 -90 -3.543
01:37 1025 30.27 854 25.22 7.2 44.9 50 -2.5 27.5 -90 -3.543
01:38 1025 30.27 854 25.22 7.1 44.7 50 -2.7 27.2 -90 -3.543
01:39 1025 30.27 854 25.22 7 44.6 51 -2.4 27.7 -90 -3.543
01:40 1025 30.27 854 25.22 6.8 44.3 52 -2.4 27.6 -90 -3.543
01:41 1025 30.27 854 25.22 6.7 44.1 53 -2.3 27.8 -90 -3.543
01:42 1025 30.27 854 25.22 6.6 43.8 52 -2.6 27.2 -90 -3.543
01:43 1025 30.27 854 25.22 6.6 43.8 52 -2.6 27.3 -90 -3.543
01:44 1025 30.27 854 25.22 6.5 43.7 53 -2.4 27.7 -90 -3.543
01:45 1025 30.27 854 25.22 6.4 43.5 54 -2.3 27.8 -90 -3.543
01:46 1025 30.27 854 25.22 6.3 43.3 54 -2.3 27.9 -90 -3.543
01:47 1025 30.27 854 25.22 6.1 43.1 54 -2.6 27.4 -90 -3.543
01:48 1025 30.27 854 25.22 6.2 43.1 53 -2.6 27.3 -90 -3.543
01:49 1025 30.27 854 25.22 6.3 43.3 54 -2.4 27.6 -90 -3.543
01:50 1025 30.27 854 25.22 6.2 43.1 54 -2.4 27.7 -90 -3.543
01:51 1025 30.27 854 25.22 6.1 42.9 55 -2.3 27.8 -90 -3.543
01:52 1025 30.27 854 25.22 6 42.7 55 -2.3 27.9 -90 -3.543
01:53 1025 30.27 855 25.25 5.9 42.6 56 -2.2 28 -90 -3.543
01:54 1025 30.27 855 25.25 5.8 42.4 56 -2.4 27.7 -90 -3.543
01:55 1025 30.27 855 25.25 5.7 42.3 56 -2.4 27.7 -90 -3.543
01:56 1025 30.27 855 25.25 5.7 42.3 56 -2.3 27.8 -90 -3.543
01:57 1025 30.27 855 25.25 5.7 42.2 56 -2.4 27.7 -90 -3.543
01:58 1025 30.27 855 25.25 5.7 42.2 56 -2.4 27.7 -90 -3.543
01:59 1025 30.27 855 25.25 5.7 42.2 56 -2.4 27.8 -90 -3.543
02:00 1025 30.27 855 25.25 5.7 42.3 57 -2.2 28.1 -90 -3.543
02:01 1025 30.27 855 25.25 5.6 42 56 -2.4 27.6 -90 -3.543
02:02 1025 30.27 855 25.25 5.6 42 57 -2.2 28 -90 -3.543
02:03 1025 30.27 855 25.25 5.4 41.7 57 -2.5 27.5 -90 -3.543
02:04 1025 30.27 855 25.25 5.3 41.6 57 -2.6 27.4 -90 -3.543
02:05 1025 30.27 855 25.25 5.2 41.4 57 -2.5 27.6 -90 -3.543
02:06 1025 30.27 855 25.25 5.1 41.2 57 -2.6 27.3 -90 -3.543
02:07 1025 30.27 855 25.25 5.1 41.2 57 -2.6 27.3 -90 -3.543
02:08 1025 30.27 855 25.25 5.2 41.3 57 -2.6 27.2 -90.1 -3.547
02:09 1025 30.27 855 25.25 5.3 41.5 57 -2.6 27.3 -90.1 -3.547
02:10 1025 30.27 854 25.22 5.3 41.6 56 -2.6 27.3 -90.1 -3.547
02:11 1025 30.27 854 25.22 5.4 41.7 57 -2.3 27.8 -90.1 -3.547
02:12 1025 30.27 854 25.22 5.3 41.6 57 -2.4 27.7 -90.1 -3.547
02:13 1025 30.27 854 25.22 5.4 41.6 57 -2.5 27.5 -90.1 -3.547
02:14 1025 30.27 854 25.22 5.3 41.6 58 -2.4 27.8 -90.1 -3.547
02:15 1025 30.27 854 25.22 5.3 41.5 57 -2.5 27.6 -90.1 -3.547
02:16 1025 30.27 854 25.22 5.3 41.5 57 -2.4 27.6 -90.1 -3.547
02:17 1025 30.27 854 25.22 5.3 41.5 57 -2.6 27.3 -90.1 -3.547
02:18 1025 30.27 854 25.22 5.5 41.8 56 -2.5 27.5 -90.1 -3.547
02:19 1025 30.27 854 25.22 5.5 41.9 57 -2.4 27.8 -90.1 -3.547
02:20 1025 30.27 854 25.22 5.5 41.8 57 -2.4 27.7 -90.1 -3.547
02:21 1025 30.27 854 25.22 5.4 41.7 57 -2.4 27.6 -90.1 -3.547
02:22 1025 30.27 854 25.22 5.4 41.7 58 -2.3 27.8 -90.1 -3.547
02:23 1025 30.27 854 25.22 5.4 41.7 57 -2.5 27.5 -90.1 -3.547
02:24 1025 30.27 854 25.22 5.4 41.7 57 -2.5 27.5 -90.2 -3.551
02:25 1025 30.27 854 25.22 5.3 41.6 57 -2.5 27.6 -90.2 -3.551
02:26 1025 30.27 854 25.22 5.2 41.3 58 -2.5 27.5 -90.2 -3.551
02:27 1025 30.27 854 25.22 4.8 40.7 59 -2.5 27.5 -90.2 -3.551
02:28 1025 30.27 854 25.22 4.5 40.1 60 -2.6 27.3 -90.2 -3.551
02:29 1025 30.27 854 25.22 4.5 40.1 60 -2.7 27.2 -90.2 -3.551
02:30 1025 30.27 854 25.22 4.3 39.7 61 -2.6 27.4 -90.2 -3.551
02:31 1025 30.27 854 25.22 4.1 39.3 62 -2.6 27.3 -90.2 -3.551
02:32 1025 30.27 854 25.22 4 39.2 62 -2.6 27.3 -90.2 -3.551
02:33 1025 30.27 854 25.22 3.9 39 62 -2.7 27.1 -90.2 -3.551
02:34 1025 30.27 854 25.22 3.9 39.1 62 -2.7 27.2 -90.2 -3.551
02:35 1025 30.27 854 25.22 4.1 39.3 62 -2.6 27.3 -90.2 -3.551
02:36 1025 30.27 854 25.22 4 39.3 62 -2.7 27.2 -90.2 -3.551
02:37 1025 30.27 854 25.22 4.1 39.3 62 -2.6 27.2 -90.2 -3.551
02:38 1025 30.27 854 25.22 4 39.2 62 -2.6 27.3 -90.2 -3.551
02:39 1025 30.27 854 25.22 4 39.2 62 -2.6 27.2 -90.2 -3.551
02:40 1025 30.27 854 25.22 4.1 39.4 61 -2.8 27 -90.2 -3.551
02:41 1025 30.27 854 25.22 4.3 39.7 61 -2.6 27.3 -90.2 -3.551
02:42 1025 30.27 854 25.22 4.3 39.7 60 -2.8 27 -90.2 -3.551
02:43 1025 30.27 854 25.22 4.4 39.9 60 -2.7 27.1 -90.2 -3.551
02:44 1025 30.27 854 25.22 4.6 40.2 59 -2.7 27.2 -90.2 -3.551
02:45 1025 30.27 854 25.22 4.7 40.4 59 -2.7 27.1 -90.2 -3.551
02:46 1025 30.27 854 25.22 4.8 40.7 58 -2.7 27.1 -90.2 -3.551
02:47 1025 30.27 854 25.22 4.9 40.7 58 -2.6 27.3 -90.2 -3.551
02:48 1025 30.27 854 25.22 4.8 40.7 59 -2.6 27.3 -90.3 -3.555
02:49 1025 30.27 854 25.22 4.7 40.5 59 -2.6 27.3 -90.3 -3.555
02:50 1025 30.27 854 25.22 4.6 40.3 59 -2.7 27.2 -90.3 -3.555
02:51 1025 30.27 854 25.22 4.5 40.2 59 -2.7 27.2 -90.3 -3.555
02:52 1025 30.27 854 25.22 4.5 40 60 -2.7 27.2 -90.3 -3.555
02:53 1025 30.27 854 25.22 4.3 39.8 60 -2.7 27.2 -90.3 -3.555
02:54 1025 30.27 854 25.22 4.2 39.5 61 -2.8 27 -90.3 -3.555
02:55 1025 30.27 854 25.22 4.1 39.4 61 -2.7 27.1 -90.3 -3.555
02:56 1025 30.27 854 25.22 4 39.2 61 -2.9 26.8 -90.3 -3.555
02:57 1025 30.27 854 25.22 3.9 39.1 61 -2.8 27 -90.3 -3.555
02:58 1025 30.27 854 25.22 3.8 38.8 62 -2.8 26.9 -90.3 -3.555
02:59 1025 30.27 854 25.22 3.7 38.7 62 -2.8 26.9 -90.3 -3.555
03:00 1025 30.27 854 25.22 3.7 38.6 62 -2.9 26.8 -90.3 -3.555
03:01 1025 30.27 854 25.22 3.7 38.7 61 -3 26.6 -90.3 -3.555
03:02 1025 30.27 854 25.22 3.9 39 61 -2.9 26.9 -90.3 -3.555
03:03 1025 30.27 854 25.22 3.9 39 61 -2.9 26.7 -90.4 -3.559
03:04 1025 30.27 854 25.22 4.1 39.3 60 -2.9 26.7 -90.4 -3.559
03:05 1025 30.27 854 25.22 4.2 39.6 60 -2.9 26.8 -90.4 -3.559
03:06 1025 30.27 854 25.22 4.3 39.8 60 -2.9 26.9 -90.4 -3.559
03:07 1025 30.27 854 25.22 4.4 39.9 59 -2.9 26.8 -90.4 -3.559
03:08 1025 30.27 854 25.22 4.4 39.9 59 -2.9 26.8 -90.4 -3.559
03:09 1025 30.27 854 25.22 4.5 40 59 -2.9 26.7 -90.4 -3.559
03:10 1025 30.27 854 25.22 4.5 40.1 59 -2.8 26.9 -90.4 -3.559
03:11 1025 30.27 854 25.22 4.4 39.9 59 -2.9 26.8 -90.4 -3.559
03:12 1025 30.27 854 25.22 4.4 39.9 59 -2.8 26.9 -90.4 -3.559
03:13 1025 30.27 854 25.22 4.3 39.7 60 -2.8 27 -90.4 -3.559
03:14 1025 30.27 854 25.22 4.3 39.7 60 -2.9 26.8 -90.4 -3.559
03:15 1025 30.27 854 25.22 4.2 39.6 60 -2.9 26.8 -90.4 -3.559
03:16 1025 30.27 854 25.22 4.2 39.6 60 -2.8 27 -90.4 -3.559
03:17 1025 30.27 854 25.22 4.2 39.5 60 -3 26.7 -90.5 -3.563
03:18 1025 30.27 854 25.22 4.3 39.7 59 -2.9 26.7 -90.5 -3.563
03:19 1025 30.27 854 25.22 4.3 39.7 59 -2.9 26.8 -90.5 -3.563
03:20 1025 30.27 854 25.22 4.3 39.8 59 -2.9 26.8 -90.5 -3.563
03:21 1025 30.27 854 25.22 4.3 39.8 60 -2.8 27 -90.5 -3.563
03:22 1025 30.27 854 25.22 4.3 39.8 60 -2.8 26.9 -90.5 -3.563
03:23 1025 30.27 854 25.22 4.3 39.7 60 -2.8 26.9 -90.5 -3.563
03:24 1025 30.27 854 25.22 4.3 39.7 60 -2.9 26.9 -90.5 -3.563
03:25 1025 30.27 854 25.22 4.3 39.8 60 -2.8 26.9 -90.5 -3.563
03:26 1025 30.27 854 25.22 4.2 39.6 60 -2.8 27 -90.5 -3.563
03:27 1025 30.27 854 25.22 4.2 39.6 61 -2.7 27.1 -90.5 -3.563
03:28 1025 30.27 854 25.22 4.2 39.5 61 -2.7 27.2 -90.5 -3.563
03:29 1025 30.27 854 25.22 4.1 39.3 62 -2.6 27.3 -90.5 -3.563
03:30 1025 30.27 854 25.22 3.9 39.1 62 -2.6 27.3 -90.5 -3.563
03:31 1025 30.27 854 25.22 3.8 38.9 63 -2.6 27.3 -90.5 -3.563
03:32 1025 30.27 854 25.22 3.7 38.7 62 -2.8 27 -90.5 -3.563
03:33 1025 30.27 854 25.22 3.6 38.4 63 -2.8 27 -90.5 -3.563
03:34 1025 30.27 854 25.22 3.3 37.9 64 -2.9 26.9 -90.5 -3.563
03:35 1025 30.27 854 25.22 3 37.4 66 -2.8 26.9 -90.5 -3.563
03:36 1025 30.27 854 25.22 2.7 36.8 67 -2.9 26.8 -90.5 -3.563
03:37 1025 30.27 854 25.22 2.5 36.4 67 -3 26.7 -90.5 -3.563
03:38 1025 30.27 854 25.22 2.4 36.4 67 -3 26.6 -90.5 -3.563
03:39 1025 30.27 854 25.22 2.5 36.6 67 -3 26.7 -90.5 -3.563
03:40 1025 30.27 854 25.22 2.6 36.7 66 -3 26.6 -90.5 -3.563
03:41 1025 30.27 854 25.22 2.8 37 66 -3 26.6 -90.5 -3.563
03:42 1025 30.27 854 25.22 3 37.4 65 -2.9 26.8 -90.5 -3.563
03:43 1025 30.27 854 25.22 3 37.5 65 -2.8 26.9 -90.5 -3.563
03:44 1025 30.27 854 25.22 3 37.3 66 -2.8 26.9 -90.5 -3.563
03:45 1025 30.27 854 25.22 2.8 37 66 -2.9 26.7 -90.5 -3.563
03:46 1025 30.27 854 25.22 2.6 36.7 67 -3 26.7 -90.5 -3.563
03:47 1025 30.27 854 25.22 2.5 36.4 67 -3 26.6 -90.5 -3.563
03:48 1025 30.27 854 25.22 2.4 36.3 67 -3 26.5 -90.5 -3.563
03:49 1025 30.27 854 25.22 2.3 36.2 67 -3.2 26.3 -90.5 -3.563
03:50 1025 30.27 854 25.22 2.4 36.3 67 -3.1 26.4 -90.5 -3.563
03:51 1025 30.27 854 25.22 2.3 36.2 67 -3.2 26.3 -90.5 -3.563
03:52 1025 30.27 854 25.22 2.4 36.4 66 -3.2 26.2 -90.5 -3.563
03:53 1025 30.27 854 25.22 2.5 36.5 66 -3.2 26.2 -90.5 -3.563
03:54 1025 30.27 854 25.22 2.6 36.6 66 -3.2 26.2 -90.5 -3.563
03:55 1025 30.27 854 25.22 2.6 36.7 65 -3.2 26.2 -90.5 -3.563
03:56 1025 30.27 854 25.22 2.7 36.8 65 -3.2 26.3 -90.5 -3.563
03:57 1025 30.27 854 25.22 2.7 36.8 65 -3.2 26.2 -90.5 -3.563
03:58 1025 30.27 854 25.22 2.6 36.7 65 -3.3 26.1 -90.6 -3.567
03:59 1025 30.27 854 25.22 2.7 36.8 65 -3.2 26.2 -90.6 -3.567
04:00 1025 30.27 854 25.22 2.7 36.8 65 -3.2 26.2 -90.6 -3.567
04:01 1025 30.27 854 25.22 2.6 36.6 66 -3.2 26.2 -90.6 -3.567
04:02 1025 30.27 854 25.22 2.4 36.4 66 -3.3 26.1 -90.6 -3.567
04:03 1025 30.27 854 25.22 2.1 35.9 67 -3.3 26.1 -90.6 -3.567
04:04 1025 30.27 854 25.22 1.9 35.3 68 -3.3 26 -90.6 -3.567
04:05 1025 30.27 854 25.22 1.5 34.7 70 -3.4 25.9 -90.6 -3.567
04:06 1025 30.27 854 25.22 1.3 34.4 71 -3.4 25.8 -90.6 -3.567
04:07 1025 30.27 854 25.22 1.2 34.2 71 -3.4 25.9 -90.6 -3.567
04:08 1025 30.27 854 25.22 1.1 34 72 -3.4 25.9 -90.6 -3.567
04:09 1025 30.27 854 25.22 1 33.8 72 -3.4 25.8 -90.6 -3.567
04:10 1025 30.27 854 25.22 0.9 33.6 73 -3.5 25.7 -90.6 -3.567
04:11 1025 30.27 854 25.22 0.8 33.5 72 -3.6 25.5 -90.6 -3.567
04:12 1025 30.27 854 25.22 0.9 33.6 72 -3.6 25.5 -90.6 -3.567
04:13 1025 30.27 854 25.22 0.9 33.7 72 -3.5 25.6 -90.6 -3.567
04:14 1025 30.27 854 25.22 0.9 33.5 72 -3.6 25.6 -90.6 -3.567
04:15 1025 30.27 854 25.22 0.8 33.4 73 -3.5 25.7 -90.7 -3.571
04:16 1025 30.27 854 25.22 0.6 33.2 73 -3.6 25.6 -90.7 -3.571
04:17 1025 30.27 854 25.22 0.6 33 74 -3.6 25.5 -90.7 -3.571
04:18 1025 30.27 854 25.22 0.5 32.9 74 -3.6 25.6 -90.7 -3.571
04:19 1025 30.27 854 25.22 0.4 32.8 74 -3.6 25.5 -90.7 -3.571
04:20 1025 30.27 854 25.22 0.4 32.7 74 -3.7 25.4 -90.7 -3.571
04:21 1025 30.27 854 25.22 0.4 32.8 74 -3.6 25.5 -90.7 -3.571
04:22 1025 30.27 854 25.22 0.4 32.8 74 -3.7 25.4 -90.7 -3.571
04:23 1025 30.27 854 25.22 0.4 32.8 74 -3.7 25.4 -90.7 -3.571
04:24 1025 30.27 854 25.22 0.4 32.7 74 -3.7 25.4 -90.7 -3.571
04:25 1025 30.27 854 25.22 0.3 32.5 75 -3.7 25.4 -90.7 -3.571
04:26 1025 30.27 854 25.22 0.3 32.5 75 -3.6 25.5 -90.7 -3.571
04:27 1025 30.27 854 25.22 0.2 32.3 76 -3.6 25.5 -90.7 -3.571
04:28 1025 30.27 854 25.22 0.1 32.2 76 -3.7 25.3 -90.7 -3.571
04:29 1025 30.27 854 25.22 0.2 32.4 75 -3.8 25.2 -90.7 -3.571
04:30 1025 30.27 854 25.22 0.4 32.6 74 -3.8 25.2 -90.7 -3.571
04:31 1025 30.27 854 25.22 0.5 33 73 -3.8 25.1 -90.7 -3.571
04:32 1025 30.27 854 25.22 0.7 33.2 72 -3.7 25.3 -90.7 -3.571
04:33 1025 30.27 854 25.22 0.7 33.2 73 -3.6 25.6 -90.7 -3.571
04:34 1025 30.27 854 25.22 0.5 32.9 74 -3.6 25.6 -90.7 -3.571
04:35 1025 30.27 854 25.22 0.5 32.8 74 -3.6 25.5 -90.7 -3.571
04:36 1025 30.27 854 25.22 0.5 33 74 -3.6 25.6 -90.7 -3.571
04:37 1025 30.27 854 25.22 0.6 33.1 74 -3.6 25.5 -90.7 -3.571
04:38 1025 30.27 854 25.22 0.6 33.1 74 -3.5 25.6 -90.7 -3.571
04:39 1025 30.27 854 25.22 0.5 32.9 74 -3.5 25.7 -90.7 -3.571
04:40 1025 30.27 854 25.22 0.4 32.7 75 -3.5 25.7 -90.7 -3.571
04:41 1025 30.27 854 25.22 0.2 32.4 76 -3.6 25.6 -90.7 -3.571
04:42 1025 30.27 854 25.22 0.1 32.1 77 -3.6 25.6 -90.7 -3.571
04:43 1025 30.27 854 25.22 -0 32 77 -3.5 25.6 -90.7 -3.571
04:44 1025 30.27 854 25.22 0 32 77 -3.5 25.6 -90.7 -3.571
04:45 1025 30.27 854 25.22 0.1 32.1 77 -3.5 25.7 -90.7 -3.571
04:46 1025 30.27 854 25.22 0 32.1 77 -3.5 25.7 -90.7 -3.571
04:47 1025 30.27 854 25.22 0.1 32.1 77 -3.5 25.8 -90.7 -3.571
04:48 1025 30.27 854 25.22 0 32.1 77 -3.5 25.7 -90.7 -3.571
04:49 1025 30.27 854 25.22 0.1 32.1 77 -3.5 25.7 -90.8 -3.575
04:50 1025 30.27 854 25.22 0.2 32.3 77 -3.4 25.8 -90.8 -3.575
04:51 1025 30.27 854 25.22 0.2 32.3 77 -3.4 25.8 -90.8 -3.575
04:52 1025 30.27 854 25.22 0.2 32.3 77 -3.5 25.8 -90.8 -3.575
04:53 1025 30.27 854 25.22 0.2 32.3 77 -3.5 25.7 -90.8 -3.575
04:54 1025 30.27 854 25.22 0.2 32.3 76 -3.5 25.8 -90.8 -3.575
04:55 1025 30.27 854 25.22 0.2 32.4 76 -3.5 25.7 -90.8 -3.575
04:56 1025 30.27 854 25.22 0.3 32.5 76 -3.5 25.7 -90.8 -3.575
04:57 1025 30.27 854 25.22 0.3 32.6 76 -3.5 25.7 -90.8 -3.575
04:58 1025 30.27 854 25.22 0.3 32.6 76 -3.4 25.8 -90.8 -3.575
04:59 1025 30.27 854 25.22 0.3 32.6 76 -3.4 25.9 -90.8 -3.575
05:00 1025 30.27 854 25.22 0.2 32.4 76 -3.4 25.9 -90.8 -3.575
05:01 1025 30.27 854 25.22 0.2 32.4 76 -3.5 25.7 -90.8 -3.575
05:02 1025 30.27 854 25.22 0.3 32.5 76 -3.5 25.8 -90.8 -3.575
05:03 1025 30.27 854 25.22 0.3 32.5 76 -3.5 25.7 -90.8 -3.575
05:04 1025 30.27 854 25.22 0.3 32.5 76 -3.5 25.7 -90.8 -3.575
05:05 1025 30.27 854 25.22 0.3 32.5 76 -3.5 25.8 -90.8 -3.575
05:06 1025 30.27 854 25.22 0.2 32.4 76 -3.5 25.7 -90.8 -3.575
05:07 1025 30.27 854 25.22 0.2 32.4 76 -3.5 25.7 -90.9 -3.579
05:08 1025 30.27 854 25.22 0.2 32.3 76 -3.5 25.7 -90.9 -3.579
05:09 1025 30.27 854 25.22 0.1 32.2 77 -3.5 25.7 -90.9 -3.579
05:10 1025 30.27 854 25.22 0 32 77 -3.5 25.7 -90.9 -3.579
05:11 1025 30.27 854 25.22 -0 32 77 -3.5 25.6 -90.9 -3.579
05:12 1025 30.27 854 25.22 -0 31.9 77 -3.6 25.6 -90.9 -3.579
05:13 1025 30.27 854 25.22 -0 32 77 -3.6 25.6 -90.9 -3.579
05:14 1025 30.27 854 25.22 -0 31.9 78 -3.5 25.7 -90.9 -3.579
05:15 1025 30.27 854 25.22 -0.1 31.8 78 -3.6 25.6 -90.9 -3.579
05:16 1025 30.27 854 25.22 -0.2 31.7 78 -3.5 25.6 -90.9 -3.579
05:17 1025 30.27 854 25.22 -0.2 31.6 78 -3.6 25.5 -90.9 -3.579
05:18 1025 30.27 854 25.22 -0.2 31.6 78 -3.6 25.5 -90.9 -3.579
05:19 1025 30.27 854 25.22 -0.2 31.6 78 -3.6 25.5 -90.9 -3.579
05:20 1025 30.27 854 25.22 -0.3 31.5 78 -3.6 25.5 -90.9 -3.579
05:21 1025 30.27 854 25.22 -0.3 31.4 79 -3.6 25.5 -90.9 -3.579
05:22 1025 30.27 854 25.22 -0.5 31.1 79 -3.7 25.4 -90.9 -3.579
05:23 1025 30.27 854 25.22 -0.5 31 79 -3.7 25.3 -90.9 -3.579
05:24 1025 30.27 854 25.22 -0.6 31 79 -3.7 25.3 -90.9 -3.579
05:25 1025 30.27 854 25.22 -0.6 30.9 79 -3.7 25.3 -90.9 -3.579
05:26 1025 30.27 854 25.22 -0.7 30.8 80 -3.7 25.3 -90.9 -3.579
05:27 1025 30.27 854 25.22 -0.6 30.9 79 -3.8 25.2 -90.9 -3.579
05:28 1025 30.27 854 25.22 -0.6 31 79 -3.8 25.1 -90.9 -3.579
05:29 1025 30.27 854 25.22 -0.4 31.2 78 -3.8 25.1 -90.9 -3.579
05:30 1025 30.27 854 25.22 -0.2 31.6 77 -3.8 25.2 -90.9 -3.579
05:31 1025 30.27 854 25.22 -0.1 31.9 76 -3.8 25.1 -90.9 -3.579
05:32 1025 30.27 854 25.22 0.1 32.1 75 -3.8 25.2 -90.9 -3.579
05:33 1025 30.27 854 25.22 0.3 32.5 75 -3.7 25.4 -90.9 -3.579
05:34 1025 30.27 854 25.22 0.4 32.7 74 -3.6 25.5 -90.9 -3.579
05:35 1025 30.27 854 25.22 0.5 32.9 74 -3.5 25.7 -90.9 -3.579
05:36 1025 30.27 854 25.22 0.5 32.9 75 -3.5 25.8 -90.9 -3.579
05:37 1025 30.27 854 25.22 0.4 32.8 76 -3.4 25.9 -91 -3.583
05:38 1025 30.27 854 25.22 0.5 32.8 76 -3.4 25.9 -91 -3.583
05:39 1025 30.27 854 25.22 0.5 32.9 76 -3.3 26.1 -91 -3.583
05:40 1025 30.27 854 25.22 0.4 32.7 76 -3.3 26 -91 -3.583
05:41 1025 30.27 854 25.22 0.3 32.5 77 -3.3 26 -91 -3.583
05:42 1025 30.27 854 25.22 0.1 32.3 77 -3.4 26 -91 -3.583
05:43 1025 30.27 854 25.22 0 32 78 -3.4 25.9 -91 -3.583
05:44 1025 30.27 854 25.22 -0.1 31.8 79 -3.4 25.9 -91 -3.583
05:45 1025 30.27 854 25.22 -0.2 31.7 79 -3.4 25.9 -91 -3.583
05:46 1025 30.27 854 25.22 -0.2 31.6 79 -3.4 25.9 -91 -3.583
05:47 1025 30.27 854 25.22 -0.2 31.7 79 -3.4 25.9 -91 -3.583
05:48 1025 30.27 854 25.22 -0.2 31.7 79 -3.4 25.8 -91 -3.583
05:49 1025 30.27 854 25.22 -0.1 31.9 78 -3.4 25.8 -91 -3.583
05:50 1025 30.27 854 25.22 -0 32 78 -3.4 25.8 -91 -3.583
05:51 1025 30.27 854 25.22 0 32 78 -3.4 25.9 -91 -3.583
05:52 1025 30.27 854 25.22 0 32.1 77 -3.5 25.8 -91 -3.583
05:53 1025 30.27 854 25.22 0.1 32.1 77 -3.4 25.8 -91 -3.583
05:54 1025 30.27 854 25.22 0.1 32.2 77 -3.4 25.8 -91 -3.583
05:55 1025 30.27 854 25.22 0.1 32.2 77 -3.4 25.8 -91 -3.583
05:56 1025 30.27 854 25.22 0.1 32.2 77 -3.5 25.8 -91 -3.583
05:57 1025 30.27 854 25.22 0.1 32.2 77 -3.4 25.8 -91 -3.583
05:58 1025 30.27 854 25.22 0.1 32.2 77 -3.4 25.8 -91 -3.583
05:59 1025 30.27 854 25.22 0.1 32.2 77 -3.4 25.9 -91 -3.583
06:00 1025 30.27 854 25.22 0.1 32.2 77 -3.4 25.8 -91 -3.583
06:01 1025 30.27 854 25.22 0.1 32.1 77 -3.5 25.7 -91 -3.583
06:02 1025 30.27 854 25.22 0 32.1 77 -3.5 25.7 -91 -3.583
06:03 1025 30.27 854 25.22 0 32 77 -3.5 25.7 -91 -3.583
06:04 1025 30.27 854 25.22 -0 32 77 -3.5 25.7 -91 -3.583
06:05 1025 30.27 854 25.22 -0.1 31.9 78 -3.5 25.7 -91 -3.583
06:06 1025 30.27 854 25.22 -0.2 31.7 78 -3.5 25.6 -91 -3.583
06:07 1025 30.27 854 25.22 -0.2 31.6 78 -3.6 25.5 -91 -3.583
06:08 1025 30.27 854 25.22 -0.3 31.4 79 -3.6 25.5 -91 -3.583
06:09 1025 30.27 854 25.22 -0.4 31.2 79 -3.7 25.4 -91 -3.583
06:10 1025 30.27 854 25.22 -0.4 31.3 78 -3.7 25.3 -91 -3.583
06:11 1025 30.27 854 25.22 -0.2 31.6 77 -3.9 25.1 -91 -3.583
06:12 1025 30.27 854 25.22 0.1 32.1 75 -3.9 24.9 -91 -3.583
06:13 1025 30.27 854 25.22 0.4 32.7 73 -3.9 24.9 -91 -3.583
06:14 1025 30.27 854 25.22 0.7 33.2 72 -3.8 25.1 -91 -3.583
06:15 1025 30.27 854 25.22 0.8 33.4 71 -3.8 25.1 -91 -3.583
06:16 1025 30.27 854 25.22 0.9 33.5 71 -3.8 25.2 -91.1 -3.587
06:17 1025 30.27 854 25.22 1 33.7 71 -3.7 25.4 -91.1 -3.587
06:18 1025 30.27 854 25.22 0.8 33.4 72 -3.7 25.4 -91.1 -3.587
06:19 1025 30.27 854 25.22 0.6 33 73 -3.8 25.2 -91.1 -3.587
06:20 1025 30.27 854 25.22 0.4 32.7 74 -3.7 25.3 -91.1 -3.587
06:21 1025 30.27 854 25.22 0.2 32.4 75 -3.7 25.4 -91.1 -3.587
06:22 1025 30.27 854 25.22 0.1 32.2 76 -3.6 25.4 -91.1 -3.587
06:23 1025 30.27 854 25.22 0 32 77 -3.5 25.7 -91.1 -3.587
06:24 1025 30.27 854 25.22 0 32.1 77 -3.5 25.8 -91.1 -3.587
06:25 1025 30.27 854 25.22 0 32 78 -3.4 25.9 -91.1 -3.587
06:26 1025 30.27 854 25.22 0.1 32.1 78 -3.4 25.9 -91.1 -3.587
06:27 1025 30.27 854 25.22 0.1 32.1 78 -3.4 26 -91.1 -3.587
06:28 1025 30.27 854 25.22 0.1 32.1 78 -3.3 26 -91.1 -3.587
06:29 1025 30.27 854 25.22 0 32.1 78 -3.3 26 -91.1 -3.587
06:30 1025 30.27 854 25.22 0 32 78 -3.3 26 -91.1 -3.587
06:31 1025 30.27 854 25.22 -0 32 78 -3.3 26 -91.1 -3.587
06:32 1025 30.27 854 25.22 -0 31.9 78 -3.4 25.9 -91.1 -3.587
06:33 1025 30.27 854 25.22 -0 32 78 -3.3 26 -91.1 -3.587
06:34 1025 30.27 854 25.22 -0 32 78 -3.4 25.9 -91.1 -3.587
06:35 1025 30.27 854 25.22 0 32 78 -3.4 25.9 -91.1 -3.587
06:36 1025 30.27 854 25.22 0.1 32.2 78 -3.3 26 -91.1 -3.587
06:37 1025 30.27 854 25.22 0.2 32.3 78 -3.3 26.1 -91.1 -3.587
06:38 1025 30.27 854 25.22 0.1 32.3 78 -3.2 26.2 -91.1 -3.587
06:39 1025 30.27 854 25.22 0.1 32.1 78 -3.3 26.1 -91.1 -3.587
06:40 1025 30.27 854 25.22 0 32.1 78 -3.3 26.1 -91.1 -3.587
06:41 1025 30.27 854 25.22 -0 31.9 79 -3.3 26.1 -91.1 -3.587
06:42 1025 30.27 854 25.22 -0.2 31.7 79 -3.3 26 -91.1 -3.587
06:43 1025 30.27 854 25.22 -0.3 31.5 80 -3.4 25.9 -91.1 -3.587
06:44 1025 30.27 854 25.22 -0.4 31.3 80 -3.4 25.8 -91.1 -3.587
06:45 1025 30.27 854 25.22 -0.5 31.1 80 -3.5 25.7 -91.1 -3.587
06:46 1025 30.27 854 25.22 -0.5 31.1 80 -3.6 25.6 -91.1 -3.587
06:47 1025 30.27 854 25.22 -0.6 30.9 80 -3.6 25.5 -91.1 -3.587
06:48 1025 30.27 854 25.22 -0.6 30.9 80 -3.6 25.5 -91.1 -3.587
06:49 1025 30.27 854 25.22 -0.6 31 80 -3.6 25.6 -91.1 -3.587
06:50 1025 30.27 854 25.22 -0.6 30.9 80 -3.6 25.5 -91.1 -3.587
06:51 1025 30.27 854 25.22 -0.7 30.8 80 -3.6 25.5 -91.1 -3.587
06:52 1025 30.27 854 25.22 -0.7 30.8 81 -3.6 25.5 -91.1 -3.587
06:53 1025 30.27 854 25.22 -0.6 31 80 -3.6 25.5 -91.1 -3.587
06:54 1025 30.27 854 25.22 -0.6 30.9 80 -3.6 25.4 -91.1 -3.587
06:55 1025 30.27 854 25.22 -0.7 30.8 80 -3.7 25.4 -91.1 -3.587
06:56 1025 30.27 855 25.25 -0.7 30.7 81 -3.6 25.5 -91.1 -3.587
06:57 1025 30.27 855 25.25 -0.8 30.5 81 -3.7 25.4 -91.1 -3.587
06:58 1025 30.27 855 25.25 -0.9 30.4 81 -3.7 25.4 -91.1 -3.587
06:59 1025 30.27 855 25.25 -0.9 30.3 82 -3.7 25.4 -91 -3.583
07:00 1025 30.27 855 25.25 -1 30.3 82 -3.7 25.3 -91 -3.583
07:01 1025 30.27 855 25.25 -1.1 30.1 82 -3.7 25.4 -91 -3.583
07:02 1025 30.27 855 25.25 -1 30.2 82 -3.7 25.3 -91 -3.583
07:03 1025 30.27 855 25.25 -1 30.2 82 -3.7 25.3 -91 -3.583
07:04 1025 30.27 855 25.25 -1.1 30.1 83 -3.7 25.4 -91 -3.583
07:05 1025 30.27 855 25.25 -1 30.1 82 -3.7 25.4 -91 -3.583
07:06 1025 30.27 855 25.25 -1 30.2 82 -3.6 25.5 -91 -3.583
07:07 1025 30.27 855 25.25 -1 30.2 82 -3.7 25.3 -91 -3.583
07:08 1025 30.27 855 25.25 -0.8 30.6 80 -3.8 25.2 -91 -3.583
07:09 1025 30.27 855 25.25 -0.6 31 79 -3.8 25.2 -91 -3.583
07:10 1025 30.27 855 25.25 -0.6 31 79 -3.7 25.3 -91 -3.583
07:11 1025 30.27 855 25.25 -0.6 30.9 79 -3.7 25.3 -91 -3.583
07:12 1025 30.27 855 25.25 -0.6 30.9 79 -3.8 25.2 -91 -3.583
07:13 1025 30.27 855 25.25 -0.6 30.8 80 -3.7 25.4 -91 -3.583
07:14 1025 30.27 855 25.25 -0.7 30.7 81 -3.6 25.5 -91 -3.583
07:15 1025 30.27 855 25.25 -0.8 30.5 82 -3.6 25.5 -91 -3.583
07:16 1025 30.27 855 25.25 -0.8 30.5 82 -3.5 25.6 -91 -3.583
07:17 1025 30.27 855 25.25 -0.8 30.5 82 -3.6 25.6 -91 -3.583
07:18 1025 30.27 855 25.25 -0.8 30.6 81 -3.6 25.6 -91 -3.583
07:19 1025 30.27 855 25.25 -0.7 30.7 81 -3.6 25.4 -91 -3.583
07:20 1025 30.27 855 25.25 -0.6 30.9 80 -3.7 25.4 -91 -3.583
07:21 1025 30.27 855 25.25 -0.5 31 79 -3.7 25.4 -91 -3.583
07:22 1025 30.27 855 25.25 -0.5 31 79 -3.7 25.4 -91.1 -3.587
07:23 1025 30.27 855 25.25 -0.4 31.2 80 -3.6 25.6 -91.1 -3.587
07:24 1025 30.27 855 25.25 -0.4 31.3 80 -3.5 25.7 -91.1 -3.587
07:25 1025 30.27 855 25.25 -0.3 31.5 79 -3.5 25.8 -91.1 -3.587
07:26 1025 30.27 855 25.25 -0.2 31.7 79 -3.5 25.7 -91.1 -3.587
07:27 1025 30.27 855 25.25 -0.1 31.9 78 -3.4 25.9 -91.1 -3.587
07:28 1025 30.27 855 25.25 -0 31.9 79 -3.2 26.2 -91.1 -3.587
07:29 1025 30.27 855 25.25 0 32 79 -3.2 26.3 -91.1 -3.587
07:30 1026 30.3 855 25.25 0.1 32.2 79 -3.2 26.3 -91.2 -3.591
07:31 1026 30.3 855 25.25 0.3 32.6 78 -3.1 26.4 -91.2 -3.591
07:32 1026 30.3 855 25.25 0.6 33 77 -3 26.5 -91.2 -3.591
07:33 1026 30.3 855 25.25 0.7 33.3 76 -3 26.6 -91.2 -3.591
07:34 1026 30.3 855 25.25 0.8 33.4 76 -2.9 26.7 -91.2 -3.591
07:35 1026 30.3 855 25.25 0.8 33.5 76 -2.9 26.8 -91.2 -3.591
07:36 1026 30.3 855 25.25 0.7 33.3 77 -2.9 26.8 -91.2 -3.591
07:37 1026 30.3 855 25.25 0.6 33.2 77 -2.9 26.9 -91.2 -3.591
07:38 1026 30.3 855 25.25 0.6 33 77 -3 26.6 -91.2 -3.591
07:39 1026 30.3 855 25.25 0.5 33 77 -3.1 26.4 -91.2 -3.591
07:40 1026 30.3 855 25.25 0.5 32.9 76 -3.2 26.3 -91.2 -3.591
07:41 1026 30.3 855 25.25 0.5 32.9 77 -3.1 26.4 -91.2 -3.591
07:42 1026 30.3 855 25.25 0.5 32.9 77 -3.1 26.3 -91.2 -3.591
07:43 1026 30.3 855 25.25 0.5 32.9 77 -3.1 26.4 -91.2 -3.591
07:44 1026 30.3 855 25.25 0.5 32.9 77 -3.1 26.4 -91.2 -3.591
07:45 1026 30.3 855 25.25 0.5 33 77 -3 26.6 -91.2 -3.591
07:46 1026 30.3 855 25.25 0.5 32.9 78 -3 26.6 -91.2 -3.591
07:47 1026 30.3 855 25.25 0.5 33 77 -3 26.6 -91.2 -3.591
07:48 1026 30.3 855 25.25 0.6 33.1 78 -2.9 26.9 -91.2 -3.591
07:49 1026 30.3 855 25.25 0.7 33.2 77 -2.9 26.9 -91.2 -3.591
07:50 1026 30.3 855 25.25 0.8 33.5 77 -2.8 26.9 -91.2 -3.591
07:51 1026 30.3 855 25.25 1 33.8 76 -2.7 27.1 -91.3 -3.594
07:52 1026 30.3 855 25.25 1.2 34.2 76 -2.6 27.2 -91.3 -3.594
07:53 1026 30.3 855 25.25 1.4 34.6 75 -2.5 27.4 -91.3 -3.594
07:54 1026 30.3 855 25.25 1.6 34.9 75 -2.4 27.6 -91.3 -3.594
07:55 1026 30.3 855 25.25 1.8 35.2 74 -2.4 27.7 -91.3 -3.594
07:56 1026 30.3 855 25.25 2 35.5 72 -2.5 27.5 -91.3 -3.594
07:57 1026 30.3 855 25.25 2.2 36 72 -2.3 27.9 -91.3 -3.594
07:58 1026 30.3 855 25.25 2.5 36.5 71 -2.3 27.8 -91.3 -3.594
07:59 1026 30.3 855 25.25 2.7 36.8 71 -2.1 28.2 -91.3 -3.594
08:00 1026 30.3 855 25.25 2.7 36.9 70 -2.2 28 -91.3 -3.594
08:01 1026 30.3 855 25.25 2.9 37.2 69 -2.2 28.1 -91.3 -3.594
08:02 1026 30.3 855 25.25 3 37.4 69 -2.1 28.2 -91.3 -3.594
08:03 1026 30.3 855 25.25 3 37.5 69 -2 28.4 -91.3 -3.594
08:04 1026 30.3 855 25.25 3.2 37.7 69 -2 28.5 -91.3 -3.594
08:05 1026 30.3 855 25.25 3.2 37.8 68 -2 28.3 -91.2 -3.591
08:06 1026 30.3 855 25.25 3.3 38 69 -1.8 28.7 -91.2 -3.591
08:07 1026 30.3 855 25.25 3.4 38 67 -2.3 27.9 -91.2 -3.591
08:08 1026 30.3 855 25.25 3.6 38.4 66 -2.2 28.1 -91.2 -3.591
08:09 1026 30.3 855 25.25 3.7 38.6 66 -2.1 28.2 -91.2 -3.591
08:10 1026 30.3 855 25.25 3.8 38.8 66 -2 28.5 -91.2 -3.591
08:11 1026 30.3 855 25.25 3.8 38.8 66 -2.1 28.3 -91.2 -3.591
08:12 1026 30.3 855 25.25 3.9 39 65 -2 28.4 -91.2 -3.591
08:13 1026 30.3 855 25.25 4 39.2 65 -2 28.5 -91.2 -3.591
08:14 1026 30.3 855 25.25 4.1 39.3 65 -1.9 28.6 -91.2 -3.591
08:15 1026 30.3 855 25.25 4.2 39.5 65 -1.9 28.6 -91.2 -3.591
08:16 1026 30.3 855 25.25 4.3 39.8 65 -1.7 29 -91.2 -3.591
08:17 1026 30.3 855 25.25 4.4 40 65 -1.6 29.1 -91.2 -3.591
08:18 1026 30.3 855 25.25 4.4 39.9 66 -1.5 29.4 -91.2 -3.591
08:19 1026 30.3 855 25.25 4.2 39.6 67 -1.4 29.4 -91.2 -3.591
08:20 1026 30.3 855 25.25 4.1 39.3 69 -1.2 29.9 -91.2 -3.591
08:21 1026 30.3 855 25.25 4 39.3 68 -1.4 29.5 -91.2 -3.591
08:22 1026 30.3 855 25.25 4 39.2 68 -1.4 29.5 -91.2 -3.591
08:23 1026 30.3 855 25.25 4 39.1 68 -1.5 29.4 -91.1 -3.587
08:24 1026 30.3 855 25.25 4 39.1 69 -1.1 30 -91.1 -3.587
08:25 1026 30.3 855 25.25 4 39.2 67 -1.5 29.4 -91.1 -3.587
08:26 1026 30.3 855 25.25 4 39.2 69 -1.1 30.1 -91.1 -3.587
08:27 1026 30.3 855 25.25 4.1 39.3 69 -1.1 30 -91.1 -3.587
08:28 1026 30.3 855 25.25 4.1 39.5 67 -1.3 29.6 -91.1 -3.587
08:29 1026 30.3 855 25.25 4.2 39.6 67 -1.4 29.5 -91.1 -3.587
08:30 1026 30.3 855 25.25 4.3 39.7 67 -1.3 29.6 -91.1 -3.587
08:31 1026 30.3 855 25.25 4.4 39.9 67 -1.1 30 -91.1 -3.587
08:32 1026 30.3 855 25.25 4.5 40.1 68 -0.8 30.5 -91 -3.583
08:33 1026 30.3 855 25.25 4.7 40.4 69 -0.6 31 -91 -3.583
08:34 1026 30.3 855 25.25 4.8 40.7 67 -0.8 30.6 -91 -3.583
08:35 1026 30.3 855 25.25 4.9 40.9 66 -0.9 30.5 -91 -3.583
08:36 1026 30.3 855 25.25 5 41 65 -1 30.2 -91 -3.583
08:37 1026 30.3 855 25.25 5.1 41.2 66 -0.8 30.6 -91 -3.583
08:38 1026 30.3 855 25.25 5.3 41.5 64 -1 30.2 -91 -3.583
08:39 1026 30.3 855 25.25 5.3 41.6 62 -1.4 29.4 -91 -3.583
08:40 1026 30.3 855 25.25 5.4 41.7 63 -1.1 30.1 -91 -3.583
08:41 1026 30.3 855 25.25 5.5 41.9 62 -1.3 29.7 -91 -3.583
08:42 1026 30.3 855 25.25 5.6 42 63 -0.8 30.5 -91 -3.583
08:43 1026 30.3 855 25.25 5.7 42.2 63 -0.8 30.5 -91 -3.583
08:44 1026 30.3 855 25.25 5.8 42.4 61 -1.2 29.8 -90.9 -3.579
08:45 1026 30.3 855 25.25 5.9 42.6 64 -0.4 31.2 -90.9 -3.579
08:46 1026 30.3 855 25.25 6.1 42.9 61 -0.8 30.6 -90.9 -3.579
08:47 1026 30.3 855 25.25 6.2 43.1 59 -1.3 29.6 -90.9 -3.579
08:48 1026 30.3 855 25.25 6.2 43.2 59 -1.2 29.8 -90.9 -3.579
08:49 1026 30.3 855 25.25 6.3 43.4 58 -1.2 29.8 -90.9 -3.579
08:50 1026 30.3 855 25.25 6.4 43.6 61 -0.5 31.1 -90.9 -3.579
08:51 1026 30.3 855 25.25 6.5 43.7 58 -1.2 29.9 -90.9 -3.579
08:52 1026 30.3 855 25.25 6.5 43.8 61 -0.5 31.1 -90.8 -3.575
08:53 1026 30.3 855 25.25 6.7 44 58 -1.1 30 -90.8 -3.575
08:54 1026 30.3 855 25.25 6.7 44 57 -1.2 29.9 -90.8 -3.575
08:55 1026 30.3 855 25.25 6.7 44.1 58 -0.8 30.5 -90.8 -3.575
08:56 1026 30.3 855 25.25 6.8 44.2 57 -1 30.2 -90.8 -3.575
08:57 1026 30.3 855 25.25 6.8 44.3 58 -0.9 30.3 -90.8 -3.575
08:58 1026 30.3 855 25.25 6.9 44.5 60 -0.2 31.6 -90.7 -3.571
08:59 1026 30.3 855 25.25 7.1 44.7 56 -1 30.2 -90.7 -3.571
09:00 1026 30.3 855 25.25 7.1 44.8 56 -1.2 29.9 -90.7 -3.571
09:01 1026 30.3 855 25.25 7.2 44.9 57 -0.6 30.8 -90.7 -3.571
09:02 1026 30.3 855 25.25 7.3 45.1 56 -0.9 30.4 -90.7 -3.571
09:03 1026 30.3 855 25.25 7.4 45.3 56 -0.7 30.7 -90.7 -3.571
09:04 1026 30.3 855 25.25 7.6 45.6 58 -0.3 31.5 -90.7 -3.571
09:05 1026 30.3 855 25.25 7.7 45.8 54 -1 30.1 -90.7 -3.571
09:06 1026 30.3 855 25.25 7.8 46.1 53 -1 30.1 -90.6 -3.567
09:07 1026 30.3 855 25.25 7.8 46 55 -0.7 30.8 -90.6 -3.567
09:08 1026 30.3 855 25.25 7.9 46.2 55 -0.5 31.2 -90.6 -3.567
09:09 1026 30.3 855 25.25 7.9 46.3 53 -1.1 29.9 -90.6 -3.567
09:10 1026 30.3 855 25.25 7.9 46.3 56 -0.3 31.5 -90.6 -3.567
09:11 1026 30.3 855 25.25 8.1 46.5 54 -0.8 30.6 -90.6 -3.567
09:12 1026 30.3 855 25.25 8.2 46.7 52 -1.1 30 -90.6 -3.567
09:13 1026 30.3 855 25.25 8.3 46.9 50 -1.6 29.2 -90.6 -3.567
09:14 1026 30.3 855 25.25 8.3 47 52 -1 30.3 -90.5 -3.563
09:15 1026 30.3 855 25.25 8.3 46.9 49 -1.7 29 -90.5 -3.563
09:16 1026 30.3 855 25.25 8.3 47 48 -2 28.4 -90.5 -3.563
09:17 1026 30.3 855 25.25 8.4 47.2 49 -1.7 28.9 -90.5 -3.563
09:18 1026 30.3 855 25.25 8.6 47.4 48 -1.9 28.6 -90.5 -3.563
09:19 1026 30.3 855 25.25 8.8 47.8 49 -1.3 29.7 -90.4 -3.559
09:20 1026 30.3 855 25.25 9.1 48.3 47 -1.6 29.2 -90.4 -3.559
09:21 1026 30.3 855 25.25 9.3 48.7 44 -2.4 27.7 -90.4 -3.559
09:22 1026 30.3 855 25.25 9.3 48.7 44 -2.4 27.7 -90.4 -3.559
09:23 1026 30.3 855 25.25 9.3 48.8 43 -2.7 27.2 -90.4 -3.559
09:24 1026 30.3 855 25.25 9.4 49 41 -3.1 26.4 -90.4 -3.559
09:25 1026 30.3 855 25.25 9.7 49.4 42 -2.7 27.2 -90.4 -3.559
09:26 1026 30.3 855 25.25 9.9 49.8 42 -2.4 27.6 -90.3 -3.555
09:27 1026 30.3 855 25.25 10.1 50.2 42 -2.1 28.2 -90.3 -3.555
09:28 1026 30.3 855 25.25 10.2 50.3 41 -2.3 27.8 -90.3 -3.555
09:29 1026 30.3 855 25.25 10.1 50.2 42 -2.3 27.9 -90.3 -3.555
09:30 1026 30.3 855 25.25 10.1 50.1 41 -2.5 27.5 -90.3 -3.555
09:31 1026 30.3 856 25.28 10.1 50.2 43 -1.8 28.8 -90.3 -3.555
09:32 1026 30.3 856 25.28 10.1 50.2 44 -1.7 28.9 -90.3 -3.555
09:33 1026 30.3 856 25.28 10.2 50.3 44 -1.6 29.2 -90.2 -3.551
09:34 1026 30.3 856 25.28 10.2 50.4 41 -2.4 27.6 -90.2 -3.551
09:35 1026 30.3 856 25.28 10.2 50.4 41 -2.3 27.8 -90.2 -3.551
09:36 1026 30.3 856 25.28 10.3 50.6 41 -2.3 27.8 -90.2 -3.551
09:37 1026 30.3 856 25.28 10.5 51 40 -2.3 27.8 -90.2 -3.551
09:38 1026 30.3 856 25.28 10.5 51 43 -1.5 29.2 -90.1 -3.547
09:39 1026 30.3 856 25.28 10.6 51.1 43 -1.3 29.6 -90.1 -3.547
09:40 1026 30.3 856 25.28 10.6 51 42 -1.6 29.1 -90.1 -3.547
09:41 1026 30.3 856 25.28 10.6 51.1 41 -2 28.5 -90.1 -3.547
09:42 1026 30.3 856 25.28 10.6 51 42 -1.8 28.8 -90 -3.543
09:43 1026 30.3 856 25.28 10.4 50.8 44 -1.4 29.5 -90 -3.543
09:44 1026 30.3 856 25.28 10.4 50.6 42 -2 28.3 -90 -3.543
09:45 1026 30.3 856 25.28 10.3 50.6 42 -2.1 28.3 -90 -3.543
09:46 1026 30.3 856 25.28 10.4 50.7 39 -2.9 26.7 -90 -3.543
09:47 1026 30.3 856 25.28 10.3 50.6 42 -1.9 28.6 -90 -3.543
09:48 1026 30.3 856 25.28 10.4 50.6 41 -2.3 27.8 -90 -3.543
09:49 1026 30.3 856 25.28 10.5 50.8 39 -2.9 26.8 -90 -3.543
09:50 1026 30.3 856 25.28 10.4 50.6 40 -2.5 27.5 -90 -3.543
09:51 1026 30.3 856 25.28 10.4 50.7 40 -2.7 27.2 -89.9 -3.539
09:52 1026 30.3 856 25.28 10.3 50.6 40 -2.5 27.4 -89.9 -3.539
09:53 1026 30.3 856 25.28 10.3 50.5 41 -2.3 27.9 -89.9 -3.539
09:54 1026 30.3 856 25.28 10.4 50.7 40 -2.7 27.2 -89.9 -3.539
09:55 1026 30.3 856 25.28 10.6 51 41 -2 28.4 -89.8 -3.535
09:56 1026 30.3 856 25.28 10.8 51.4 40 -2.1 28.1 -89.8 -3.535
09:57 1026 30.3 856 25.28 10.8 51.4 39 -2.7 27.2 -89.8 -3.535
09:58 1026 30.3 856 25.28 10.8 51.5 41 -2 28.5 -89.8 -3.535
09:59 1026 30.3 856 25.28 11 51.9 41 -1.7 28.9 -89.8 -3.535
10:00 1026 30.3 856 25.28 11.1 52.1 42 -1.3 29.7 -89.7 -3.531
10:01 1026 30.3 856 25.28 11.3 52.3 39 -2.3 27.9 -89.7 -3.531
10:02 1026 30.3 856 25.28 11.3 52.3 37 -3 26.7 -89.7 -3.531
10:03 1026 30.3 856 25.28 11.2 52.2 37 -2.9 26.7 -89.7 -3.531
10:04 1026 30.3 856 25.28 11.3 52.3 39 -2 28.5 -89.7 -3.531
10:05 1026 30.3 856 25.28 11.5 52.6 38 -2.2 28.1 -89.7 -3.531
10:06 1026 30.3 856 25.28 11.8 53.2 37 -2.4 27.6 -89.6 -3.528
10:07 1026 30.3 856 25.28 12 53.5 37 -2.1 28.2 -89.6 -3.528
10:08 1026 30.3 856 25.28 12.1 53.8 37 -2.2 28 -89.6 -3.528
10:09 1026 30.3 856 25.28 12.1 53.8 39 -1.3 29.7 -89.6 -3.528
10:10 1026 30.3 856 25.28 12.1 53.7 36 -2.4 27.7 -89.6 -3.528
10:11 1026 30.3 856 25.28 11.9 53.4 38 -1.8 28.7 -89.5 -3.524
10:12 1026 30.3 856 25.28 11.8 53.2 38 -1.9 28.5 -89.5 -3.524
10:13 1026 30.3 856 25.28 11.7 53.1 36 -2.7 27.2 -89.5 -3.524
10:14 1026 30.3 856 25.28 11.4 52.5 38 -2.4 27.7 -89.5 -3.524
10:15 1026 30.3 856 25.28 11.3 52.4 37 -2.9 26.7 -89.5 -3.524
10:16 1026 30.3 856 25.28 11.3 52.3 37 -2.9 26.8 -89.5 -3.524
10:17 1026 30.3 856 25.28 11.2 52.2 39 -2.3 27.9 -89.4 -3.52
10:18 1026 30.3 856 25.28 11.3 52.4 36 -3.1 26.4 -89.4 -3.52
10:19 1026 30.3 856 25.28 11.5 52.7 36 -3 26.5 -89.4 -3.52
10:20 1026 30.3 856 25.28 11.7 53 34 -3.8 25.1 -89.4 -3.52
10:21 1026 30.3 856 25.28 11.7 53 34 -3.4 25.9 -89.4 -3.52
10:22 1026 30.3 856 25.28 11.7 53 34 -3.7 25.4 -89.3 -3.516
10:23 1026 30.3 856 25.28 11.8 53.3 35 -3.3 26.1 -89.3 -3.516
10:24 1026 30.3 856 25.28 12 53.6 33 -3.7 25.4 -89.3 -3.516
10:25 1026 30.3 856 25.28 12 53.5 34 -3.3 26 -89.3 -3.516
10:26 1026 30.3 856 25.28 11.9 53.4 37 -2.2 28.1 -89.2 -3.512
10:27 1026 30.3 856 25.28 11.9 53.3 38 -1.9 28.6 -89.2 -3.512
10:28 1026 30.3 856 25.28 11.9 53.5 36 -2.7 27.1 -89.2 -3.512
10:29 1026 30.3 856 25.28 12.1 53.8 37 -1.9 28.5 -89.2 -3.512
10:30 1026 30.3 856 25.28 12.1 53.8 37 -1.9 28.5 -89.1 -3.508
10:31 1026 30.3 856 25.28 12.1 53.8 35 -2.7 27.2 -89.1 -3.508
10:32 1026 30.3 856 25.28 12.1 53.7 38 -1.6 29 -89.1 -3.508
10:33 1026 30.3 856 25.28 12.2 53.9 41 -0.6 31 -89.1 -3.508
10:34 1026 30.3 856 25.28 12.3 54.2 38 -1.5 29.2 -89.1 -3.508
10:35 1026 30.3 856 25.28 12.4 54.3 36 -2.1 28.2 -89.1 -3.508
10:36 1026 30.3 856 25.28 12.5 54.5 33 -3.1 26.4 -89.1 -3.508
10:37 1026 30.3 856 25.28 12.5 54.4 36 -2.2 28 -89 -3.504
10:38 1026 30.3 856 25.28 12.5 54.4 33 -3.1 26.4 -89 -3.504
10:39 1026 30.3 856 25.28 12.5 54.5 34 -2.9 26.8 -89 -3.504
10:40 1026 30.3 856 25.28 12.5 54.6 33 -3.1 26.4 -89 -3.504
10:41 1026 30.3 856 25.28 12.5 54.6 34 -3 26.6 -89 -3.504
10:42 1026 30.3 856 25.28 12.6 54.7 35 -2.5 27.5 -88.9 -3.5
10:43 1026 30.3 856 25.28 12.8 55 34 -2.5 27.5 -88.9 -3.5
10:44 1026 30.3 856 25.28 12.8 55 34 -2.5 27.6 -88.9 -3.5
10:45 1026 30.3 856 25.28 12.6 54.6 34 -2.7 27.1 -88.9 -3.5
10:46 1026 30.3 856 25.28 12.5 54.4 37 -1.6 29.1 -88.9 -3.5
10:47 1026 30.3 856 25.28 12.6 54.6 37 -1.6 29.1 -88.9 -3.5
10:48 1026 30.3 856 25.28 12.7 54.9 40 -0.3 31.4 -88.8 -3.496
10:49 1026 30.3 856 25.28 12.7 54.8 37 -1.7 29 -88.8 -3.496
10:50 1026 30.3 856 25.28 12.6 54.6 34 -2.9 26.7 -88.8 -3.496
10:51 1026 30.3 856 25.28 12.6 54.7 34 -2.9 26.7 -88.8 -3.496
10:52 1026 30.3 856 25.28 12.7 54.9 37 -1.4 29.5 -88.8 -3.496
10:53 1026 30.3 856 25.28 12.8 55.1 36 -1.7 28.9 -88.7 -3.492
10:54 1026 30.3 856 25.28 12.9 55.2 35 -2.1 28.2 -88.7 -3.492
10:55 1026 30.3 856 25.28 12.9 55.3 34 -2.6 27.3 -88.7 -3.492
10:56 1026 30.3 856 25.28 13 55.3 37 -1.5 29.3 -88.7 -3.492
10:57 1026 30.3 856 25.28 13.1 55.6 37 -1.2 29.8 -88.6 -3.488
10:58 1026 30.3 856 25.28 13.2 55.8 36 -1.5 29.3 -88.6 -3.488
10:59 1026 30.3 855 25.25 13.2 55.7 36 -1.3 29.6 -88.6 -3.488
11:00 1026 30.3 856 25.28 13.1 55.6 40 -0.2 31.7 -88.6 -3.488
11:01 1026 30.3 856 25.28 13.2 55.8 36 -1.6 29.1 -88.6 -3.488
11:02 1026 30.3 855 25.25 13.2 55.7 35 -1.9 28.5 -88.6 -3.488
11:03 1026 30.3 855 25.25 13.1 55.6 38 -1 30.2 -88.5 -3.484
11:04 1026 30.3 855 25.25 13 55.5 37 -1.4 29.4 -88.5 -3.484
11:05 1026 30.3 855 25.25 13 55.4 39 -0.7 30.8 -88.5 -3.484
11:06 1026 30.3 855 25.25 13 55.4 41 0.3 32.5 -88.5 -3.484
11:07 1026 30.3 855 25.25 13.1 55.6 41 0.3 32.5 -88.4 -3.48
11:08 1026 30.3 855 25.25 13.2 55.7 36 -1.6 29.1 -88.4 -3.48
11:09 1026 30.3 855 25.25 13.1 55.5 39 -0.3 31.4 -88.4 -3.48
11:10 1026 30.3 855 25.25 13.1 55.5 37 -1.2 29.9 -88.4 -3.48
11:11 1026 30.3 855 25.25 13.1 55.5 35 -1.8 28.7 -88.4 -3.48
11:12 1026 30.3 855 25.25 13.1 55.5 35 -2.1 28.2 -88.4 -3.48
11:13 1026 30.3 855 25.25 13.1 55.6 37 -1.1 30 -88.4 -3.48
11:14 1026 30.3 855 25.25 13.2 55.8 36 -1.6 29.2 -88.4 -3.48
11:15 1026 30.3 855 25.25 13.2 55.8 37 -0.9 30.3 -88.4 -3.48
11:16 1026 30.3 855 25.25 13.3 55.9 36 -1.3 29.6 -88.3 -3.476
11:17 1026 30.3 855 25.25 13.4 56 37 -0.8 30.6 -88.3 -3.476
11:18 1026 30.3 855 25.25 13.5 56.2 37 -0.9 30.3 -88.3 -3.476
11:19 1026 30.3 855 25.25 13.6 56.5 34 -1.8 28.8 -88.3 -3.476
11:20 1026 30.3 855 25.25 13.7 56.6 36 -1 30.3 -88.3 -3.476
11:21 1026 30.3 855 25.25 13.8 56.9 39 0.2 32.3 -88.3 -3.476
11:22 1026 30.3 855 25.25 13.9 56.9 37 -0.5 31.1 -88.3 -3.476
11:23 1026 30.3 855 25.25 13.7 56.7 33 -2.1 28.1 -88.3 -3.476
11:24 1026 30.3 855 25.25 13.7 56.6 33 -2.2 28.1 -88.2 -3.472
11:25 1026 30.3 855 25.25 13.5 56.3 34 -1.8 28.8 -88.2 -3.472
11:26 1026 30.3 855 25.25 13.4 56 38 -0.4 31.2 -88.2 -3.472
11:27 1026 30.3 855 25.25 13.4 56.1 35 -1.9 28.6 -88.2 -3.472
11:28 1026 30.3 855 25.25 13.4 56.1 35 -1.6 29.2 -88.2 -3.472
11:29 1026 30.3 855 25.25 13.6 56.4 37 -0.9 30.4 -88.2 -3.472
11:30 1026 30.3 855 25.25 13.7 56.7 34 -1.9 28.6 -88.1 -3.469
11:31 1026 30.3 855 25.25 13.9 56.9 34 -1.5 29.3 -88.1 -3.469
11:32 1026 30.3 855 25.25 13.9 56.9 32 -2.6 27.4 -88.1 -3.469
11:33 1026 30.3 855 25.25 13.8 56.8 31 -2.9 26.7 -88.1 -3.469
11:34 1026 30.3 855 25.25 13.7 56.6 35 -1.4 29.4 -88.1 -3.469
11:35 1026 30.3 855 25.25 13.7 56.6 34 -1.8 28.8 -88.1 -3.469
11:36 1026 30.3 855 25.25 13.6 56.5 32 -2.8 27 -88 -3.465
11:37 1026 30.3 855 25.25 13.5 56.4 36 -1.2 29.8 -88 -3.465
11:38 1026 30.3 855 25.25 13.6 56.5 34 -2 28.3 -88 -3.465
11:39 1026 30.3 855 25.25 13.8 56.8 35 -1.5 29.4 -88 -3.465
11:40 1026 30.3 855 25.25 13.9 57 37 -0.5 31.2 -88 -3.465
11:41 1026 30.3 855 25.25 14.1 57.5 33 -1.9 28.5 -88 -3.465
11:42 1026 30.3 855 25.25 14.4 57.9 32 -2.1 28.1 -87.9 -3.461
11:43 1026 30.3 855 25.25 14.4 57.9 31 -2.3 27.8 -87.9 -3.461
11:44 1026 30.3 855 25.25 14.2 57.6 32 -2.3 27.9 -87.9 -3.461
11:45 1026 30.3 855 25.25 14.2 57.6 33 -1.8 28.8 -87.9 -3.461
11:46 1026 30.3 855 25.25 14.3 57.7 33 -1.7 29 -87.9 -3.461
11:47 1026 30.3 855 25.25 14.5 58 32 -1.9 28.5 -87.9 -3.461
11:48 1026 30.3 855 25.25 14.6 58.2 34 -1 30.1 -87.8 -3.457
11:49 1026 30.3 855 25.25 14.5 58.1 31 -2.5 27.5 -87.8 -3.457
11:50 1026 30.3 855 25.25 14.5 58 31 -2.4 27.6 -87.8 -3.457
11:51 1026 30.3 855 25.25 14.5 58 30 -2.6 27.3 -87.8 -3.457
11:52 1026 30.3 855 25.25 14.5 58.2 35 -0.6 30.9 -87.8 -3.457
11:53 1026 30.3 855 25.25 14.6 58.2 33 -1.3 29.6 -87.8 -3.457
11:54 1026 30.3 855 25.25 14.5 58.1 33 -1.5 29.3 -87.7 -3.453
11:55 1026 30.3 855 25.25 14.5 58.1 31 -2.2 28 -87.7 -3.453
11:56 1026 30.3 855 25.25 14.6 58.3 35 -0.8 30.6 -87.7 -3.453
11:57 1026 30.3 855 25.25 14.8 58.7 31 -2.2 28 -87.6 -3.449
11:58 1026 30.3 855 25.25 15 59.1 32 -1.4 29.5 -87.6 -3.449
11:59 1026 30.3 855 25.25 15.2 59.3 30 -2 28.5 -87.6 -3.449
12:00 1026 30.3 855 25.25 15.1 59.2 32 -1.3 29.6 -87.6 -3.449
12:01 1026 30.3 855 25.25 14.9 58.8 32 -1.7 28.9 -87.6 -3.449
12:02 1026 30.3 855 25.25 14.8 58.6 32 -1.5 29.3 -87.6 -3.449
12:03 1026 30.3 855 25.25 14.7 58.4 34 -1 30.1 -87.6 -3.449
12:04 1026 30.3 855 25.25 14.7 58.5 34 -0.7 30.7 -87.6 -3.449
12:05 1026 30.3 855 25.25 14.7 58.5 31 -2 28.4 -87.6 -3.449
12:06 1026 30.3 855 25.25 14.7 58.5 31 -2 28.5 -87.6 -3.449
12:07 1026 30.3 855 25.25 14.8 58.6 31 -2.3 27.9 -87.6 -3.449
12:08 1026 30.3 855 25.25 14.8 58.7 31 -1.9 28.6 -87.6 -3.449
12:09 1026 30.3 855 25.25 15 58.9 32 -1.4 29.5 -87.5 -3.445
12:10 1026 30.3 855 25.25 15.1 59.2 31 -2 28.4 -87.5 -3.445
12:11 1026 30.3 855 25.25 15.2 59.3 33 -0.9 30.3 -87.5 -3.445
12:12 1026 30.3 855 25.25 15.2 59.3 33 -1 30.2 -87.5 -3.445
12:13 1026 30.3 855 25.25 15.2 59.3 31 -1.8 28.7 -87.5 -3.445
12:14 1026 30.3 855 25.25 15 58.9 30 -2.2 28.1 -87.5 -3.445
12:15 1026 30.3 855 25.25 14.9 58.8 31 -1.9 28.6 -87.5 -3.445
12:16 1026 30.3 855 25.25 15 58.9 32 -1.4 29.5 -87.4 -3.441
12:17 1026 30.3 855 25.25 15 59 31 -1.7 28.9 -87.4 -3.441
12:18 1026 30.3 855 25.25 15 59 31 -1.8 28.7 -87.4 -3.441
12:19 1026 30.3 855 25.25 15 59 30 -2.3 27.8 -87.4 -3.441
12:20 1026 30.3 855 25.25 15.1 59.2 31 -1.8 28.8 -87.4 -3.441
12:21 1026 30.3 855 25.25 15.3 59.5 31 -1.6 29.2 -87.4 -3.441
12:22 1026 30.3 855 25.25 15.4 59.8 32 -0.9 30.4 -87.4 -3.441
12:23 1026 30.3 855 25.25 15.6 60 29 -2.3 27.9 -87.4 -3.441
12:24 1026 30.3 855 25.25 15.6 60.1 29 -2.1 28.2 -87.4 -3.441
12:25 1026 30.3 855 25.25 15.7 60.3 30 -1.5 29.3 -87.3 -3.437
12:26 1026 30.3 855 25.25 15.9 60.6 31 -1.2 29.8 -87.3 -3.437
12:27 1026 30.3 855 25.25 16 60.8 35 0.6 33.1 -87.3 -3.437
12:28 1026 30.3 855 25.25 16 60.7 31 -1.2 29.8 -87.3 -3.437
12:29 1026 30.3 855 25.25 15.8 60.4 32 -0.7 30.8 -87.3 -3.437
12:30 1026 30.3 855 25.25 15.7 60.2 30 -1.6 29.1 -87.3 -3.437
12:31 1026 30.3 855 25.25 15.7 60.3 32 -0.8 30.5 -87.2 -3.433
12:32 1026 30.3 855 25.25 15.9 60.6 30 -1.5 29.2 -87.2 -3.433
12:33 1026 30.3 855 25.25 16.1 61 31 -0.9 30.3 -87.2 -3.433
12:34 1026 30.3 855 25.25 16.1 61 31 -0.9 30.4 -87.2 -3.433
12:35 1026 30.3 855 25.25 16.2 61.1 32 -0.5 31.1 -87.2 -3.433
12:36 1026 30.3 855 25.25 16.3 61.3 35 0.8 33.4 -87.1 -3.429
12:37 1026 30.3 855 25.25 16.3 61.4 33 0.3 32.5 -87.2 -3.433
12:38 1026 30.3 855 25.25 16.3 61.4 29 -1.5 29.2 -87.1 -3.429
12:39 1026 30.3 855 25.25 16.4 61.6 32 -0.2 31.6 -87.1 -3.429
12:40 1026 30.3 855 25.25 16.4 61.5 29 -1.6 29.1 -87.1 -3.429
12:41 1025 30.27 855 25.25 16.3 61.4 29 -1.8 28.7 -87.1 -3.429
12:42 1025 30.27 855 25.25 16.2 61.2 29 -1.9 28.6 -87.1 -3.429
12:43 1025 30.27 855 25.25 16.1 61 29 -1.6 29 -87.1 -3.429
12:44 1025 30.27 855 25.25 16.1 60.9 30 -1.4 29.5 -87.1 -3.429
12:45 1025 30.27 855 25.25 16.1 60.9 32 -0.6 31 -87.1 -3.429
12:46 1025 30.27 855 25.25 16.1 61 31 -1.1 30 -87 -3.425
12:47 1025 30.27 855 25.25 16.1 61 30 -1.4 29.4 -87 -3.425
12:48 1025 30.27 855 25.25 16.2 61.1 31 -1 30.2 -87 -3.425
12:49 1025 30.27 855 25.25 16.3 61.4 34 0.4 32.7 -86.9 -3.421
12:50 1025 30.27 855 25.25 16.5 61.7 33 0.5 32.8 -86.9 -3.421
12:51 1025 30.27 855 25.25 16.7 62 34 1 33.8 -86.9 -3.421
12:52 1025 30.27 855 25.25 16.8 62.2 36 1.6 34.9 -86.9 -3.421
12:53 1025 30.27 855 25.25 17 62.5 34 1.1 34 -86.9 -3.421
12:54 1025 30.27 855 25.25 17.1 62.7 29 -0.8 30.6 -86.9 -3.421
12:55 1025 30.27 855 25.25 16.9 62.4 30 -0.7 30.8 -86.9 -3.421
12:56 1025 30.27 855 25.25 16.8 62.2 32 0 32 -86.9 -3.421
12:57 1025 30.27 855 25.25 16.7 62.1 32 0 32.1 -86.9 -3.421
12:58 1025 30.27 855 25.25 16.7 62.1 31 -0.2 31.6 -86.9 -3.421
12:59 1025 30.27 855 25.25 16.8 62.2 31 -0.5 31.1 -86.9 -3.421
13:00 1025 30.27 855 25.25 16.8 62.2 33 0.5 32.9 -86.9 -3.421
13:01 1025 30.27 855 25.25 16.9 62.4 29 -1 30.3 -86.9 -3.421
13:02 1025 30.27 855 25.25 17 62.6 29 -1 30.2 -86.9 -3.421
13:03 1025 30.27 855 25.25 17 62.5 34 1 33.7 -86.8 -3.417
13:04 1025 30.27 855 25.25 17 62.6 31 -0.1 31.8 -86.8 -3.417
13:05 1025 30.27 855 25.25 16.9 62.4 33 0.6 33.2 -86.8 -3.417
13:06 1025 30.27 855 25.25 17 62.6 33 0.7 33.2 -86.8 -3.417
13:07 1025 30.27 854 25.22 17.2 62.9 29 -1.1 30.1 -86.8 -3.417
13:08 1025 30.27 855 25.25 17 62.7 29 -1 30.1 -86.8 -3.417
13:09 1025 30.27 855 25.25 17 62.5 29 -1.3 29.7 -86.8 -3.417
13:10 1025 30.27 854 25.22 16.9 62.5 30 -0.5 31 -86.8 -3.417
13:11 1025 30.27 854 25.22 17.1 62.7 31 0.1 32.1 -86.8 -3.417
13:12 1025 30.27 854 25.22 17.3 63.1 29 -0.6 30.9 -86.7 -3.413
13:13 1025 30.27 854 25.22 17.4 63.3 29 -0.6 30.9 -86.7 -3.413
13:14 1025 30.27 854 25.22 17.5 63.4 27 -1.8 28.7 -86.7 -3.413
13:15 1025 30.27 854 25.22 17.5 63.4 30 -0 32 -86.7 -3.413
13:16 1025 30.27 854 25.22 17.4 63.3 26 -2.2 28.1 -86.7 -3.413
13:17 1025 30.27 854 25.22 17.5 63.4 29 -0.5 31 -86.7 -3.413
13:18 1025 30.27 854 25.22 17.6 63.6 31 0.3 32.6 -86.7 -3.413
13:19 1025 30.27 854 25.22 17.7 63.9 29 -0.2 31.6 -86.7 -3.413
13:20 1025 30.27 854 25.22 17.9 64.1 29 -0.1 31.8 -86.7 -3.413
13:21 1025 30.27 854 25.22 17.9 64.2 30 0.1 32.2 -86.7 -3.413
13:22 1025 30.27 854 25.22 17.9 64.3 30 0.1 32.2 -86.7 -3.413
13:23 1025 30.27 854 25.22 18 64.4 28 -0.4 31.2 -86.7 -3.413
13:24 1025 30.27 854 25.22 18 64.5 28 -0.6 31 -86.7 -3.413
13:25 1025 30.27 854 25.22 17.9 64.3 29 -0 32 -86.6 -3.409
13:26 1025 30.27 854 25.22 17.7 63.9 29 -0.5 31 -86.6 -3.409
13:27 1025 30.27 854 25.22 17.6 63.7 29 -0.4 31.3 -86.7 -3.413
13:28 1025 30.27 854 25.22 17.4 63.4 31 0.5 32.8 -86.7 -3.413
13:29 1025 30.27 854 25.22 17.4 63.2 28 -1.4 29.6 -86.7 -3.413
13:30 1025 30.27 854 25.22 17.4 63.3 29 -0.5 31 -86.6 -3.409
13:31 1025 30.27 854 25.22 17.6 63.6 29 -0.5 31.1 -86.6 -3.409
13:32 1025 30.27 854 25.22 17.8 64 28 -0.7 30.7 -86.6 -3.409
13:33 1025 30.27 854 25.22 17.7 63.9 29 -0.3 31.4 -86.6 -3.409
13:34 1025 30.27 854 25.22 17.7 63.8 25 -2.3 27.9 -86.7 -3.413
13:35 1025 30.27 854 25.22 17.5 63.6 28 -0.9 30.4 -86.6 -3.409
13:36 1025 30.27 854 25.22 17.6 63.7 27 -1.4 29.5 -86.6 -3.409
13:37 1025 30.27 854 25.22 17.7 63.9 27 -1.4 29.5 -86.6 -3.409
13:38 1025 30.27 854 25.22 17.8 64.1 27 -1.1 30.1 -86.5 -3.406
13:39 1025 30.27 854 25.22 17.8 64 26 -1.8 28.7 -86.5 -3.406
13:40 1025 30.27 854 25.22 17.7 63.9 29 -0.5 31.1 -86.5 -3.406
13:41 1025 30.27 854 25.22 17.8 64 25 -2.6 27.3 -86.5 -3.406
13:42 1025 30.27 854 25.22 17.7 63.9 30 -0.1 31.8 -86.5 -3.406
13:43 1025 30.27 854 25.22 17.9 64.2 30 0.3 32.5 -86.5 -3.406
13:44 1025 30.27 854 25.22 18.1 64.5 30 0.2 32.4 -86.5 -3.406
13:45 1025 30.27 854 25.22 18 64.4 26 -1.8 28.8 -86.5 -3.406
13:46 1025 30.27 854 25.22 17.9 64.2 26 -1.7 29 -86.5 -3.406
13:47 1025 30.27 854 25.22 17.8 64 28 -1 30.2 -86.5 -3.406
13:48 1025 30.27 854 25.22 17.8 64 27 -1.4 29.5 -86.5 -3.406
13:49 1025 30.27 854 25.22 17.6 63.7 27 -1.7 28.9 -86.5 -3.406
13:50 1025 30.27 854 25.22 17.5 63.5 29 -0.7 30.8 -86.5 -3.406
13:51 1025 30.27 854 25.22 17.5 63.6 27 -1.4 29.5 -86.5 -3.406
13:52 1025 30.27 854 25.22 17.7 63.9 31 0.7 33.3 -86.5 -3.406
13:53 1025 30.27 854 25.22 17.9 64.3 28 -0.8 30.5 -86.4 -3.402
13:54 1025 30.27 854 25.22 17.9 64.3 24 -2.6 27.4 -86.4 -3.402
13:55 1025 30.27 854 25.22 17.8 64 27 -1.6 29.2 -86.4 -3.402
13:56 1025 30.27 854 25.22 17.7 63.8 24 -2.9 26.9 -86.4 -3.402
13:57 1025 30.27 854 25.22 17.7 63.8 28 -1.1 30 -86.4 -3.402
13:58 1025 30.27 854 25.22 17.7 63.9 26 -1.8 28.8 -86.4 -3.402
13:59 1025 30.27 854 25.22 17.8 64 25 -2.5 27.6 -86.4 -3.402
14:00 1025 30.27 854 25.22 17.9 64.2 25 -2.6 27.4 -86.4 -3.402
14:01 1025 30.27 854 25.22 17.9 64.3 24 -3 26.7 -86.4 -3.402
14:02 1025 30.27 854 25.22 17.8 64.1 24 -2.6 27.3 -86.4 -3.402
14:03 1025 30.27 854 25.22 17.8 64.1 25 -2.6 27.4 -86.3 -3.398
14:04 1025 30.27 854 25.22 17.9 64.2 27 -1 30.2 -86.3 -3.398
14:05 1025 30.27 854 25.22 18.1 64.5 27 -1.2 29.8 -86.3 -3.398
14:06 1025 30.27 854 25.22 18.2 64.7 28 -0.5 31.2 -86.3 -3.398
14:07 1025 30.27 854 25.22 18.2 64.8 24 -2.6 27.3 -86.3 -3.398
14:08 1025 30.27 854 25.22 18.3 65 26 -1.1 30 -86.3 -3.398
14:09 1025 30.27 854 25.22 18.3 65 27 -0.7 30.7 -86.3 -3.398
14:10 1025 30.27 854 25.22 18.4 65.1 25 -1.8 28.8 -86.3 -3.398
14:11 1025 30.27 854 25.22 18.4 65.1 29 0.1 32.2 -86.3 -3.398
14:12 1025 30.27 854 25.22 18.5 65.3 28 -0.2 31.6 -86.3 -3.398
14:13 1025 30.27 854 25.22 18.6 65.4 24 -2 28.4 -86.3 -3.398
14:14 1025 30.27 854 25.22 18.5 65.3 27 -0.8 30.5 -86.2 -3.394
14:15 1025 30.27 854 25.22 18.6 65.5 25 -1.5 29.3 -86.2 -3.394
14:16 1025 30.27 854 25.22 18.7 65.6 26 -0.9 30.5 -86.2 -3.394
14:17 1025 30.27 854 25.22 18.5 65.3 24 -2.3 27.8 -86.2 -3.394
14:18 1025 30.27 854 25.22 18.3 65 26 -1.6 29.1 -86.2 -3.394
14:19 1025 30.27 854 25.22 18.3 64.9 27 -0.8 30.6 -86.2 -3.394
14:20 1025 30.27 854 25.22 18.3 64.9 25 -2.1 28.3 -86.2 -3.394
14:21 1025 30.27 854 25.22 18.2 64.7 27 -1 30.3 -86.2 -3.394
14:22 1025 30.27 854 25.22 18.2 64.8 24 -2.5 27.6 -86.2 -3.394
14:23 1025 30.27 854 25.22 18.4 65.1 26 -1.2 29.8 -86.1 -3.39
14:24 1025 30.27 854 25.22 18.6 65.5 27 -0.4 31.3 -86.1 -3.39
14:25 1025 30.27 854 25.22 18.6 65.5 23 -3.1 26.4 -86.1 -3.39
14:26 1025 30.27 854 25.22 18.4 65.1 27 -1 30.2 -86.1 -3.39
14:27 1025 30.27 854 25.22 18.4 65.2 23 -2.7 27.1 -86.1 -3.39
14:28 1025 30.27 854 25.22 18.5 65.3 24 -2.2 28 -86.1 -3.39
14:29 1025 30.27 854 25.22 18.6 65.4 23 -3 26.6 -86 -3.386
14:30 1025 30.27 854 25.22 18.6 65.4 24 -2.4 27.7 -86 -3.386
14:31 1025 30.27 854 25.22 18.6 65.5 24 -2.2 28 -86 -3.386
14:32 1025 30.27 854 25.22 18.7 65.6 26 -1.1 30 -85.9 -3.382
14:33 1025 30.27 854 25.22 18.7 65.6 23 -2.5 27.4 -85.9 -3.382
14:34 1025 30.27 854 25.22 18.5 65.4 23 -2.8 27 -86 -3.386
14:35 1025 30.27 854 25.22 18.5 65.3 26 -1.5 29.4 -85.9 -3.382
14:36 1025 30.27 854 25.22 18.5 65.3 22 -3.5 25.8 -85.9 -3.382
14:37 1025 30.27 854 25.22 18.5 65.4 26 -1.3 29.7 -85.9 -3.382
14:38 1025 30.27 854 25.22 18.5 65.3 24 -2.4 27.8 -85.9 -3.382
14:39 1025 30.27 854 25.22 18.6 65.4 22 -3.4 25.9 -85.9 -3.382
14:40 1025 30.27 854 25.22 18.5 65.2 22 -3.6 25.5 -85.9 -3.382
14:41 1025 30.27 854 25.22 18.5 65.3 24 -2.1 28.3 -85.8 -3.378
14:42 1025 30.27 854 25.22 18.8 65.8 25 -1.4 29.4 -85.8 -3.378
14:43 1025 30.27 854 25.22 18.9 65.9 26 -1.1 30 -85.8 -3.378
14:44 1025 30.27 854 25.22 18.8 65.8 25 -1.5 29.3 -85.8 -3.378
14:45 1025 30.27 854 25.22 18.9 66 23 -2.4 27.6 -85.8 -3.378
14:46 1025 30.27 854 25.22 18.9 66 22 -3.3 26 -85.8 -3.378
14:47 1025 30.27 854 25.22 18.9 66 22 -3.3 26 -85.7 -3.374
14:48 1025 30.27 854 25.22 18.8 65.8 23 -2.5 27.5 -85.8 -3.378
14:49 1025 30.27 854 25.22 18.7 65.7 24 -2.3 27.8 -85.7 -3.374
14:50 1025 30.27 854 25.22 18.8 65.8 23 -2.6 27.4 -85.7 -3.374
14:51 1025 30.27 854 25.22 18.7 65.7 23 -2.7 27.1 -85.7 -3.374
14:52 1025 30.27 854 25.22 18.7 65.6 23 -2.9 26.8 -85.7 -3.374
14:53 1025 30.27 854 25.22 18.7 65.7 25 -1.5 29.3 -85.7 -3.374
14:54 1025 30.27 854 25.22 18.8 65.8 27 -0.5 31.1 -85.6 -3.37
14:55 1025 30.27 854 25.22 18.8 65.8 24 -2 28.4 -85.6 -3.37
14:56 1025 30.27 854 25.22 18.8 65.8 23 -2.4 27.7 -85.6 -3.37
14:57 1025 30.27 854 25.22 18.7 65.7 25 -1.4 29.5 -85.6 -3.37
14:58 1025 30.27 854 25.22 18.8 65.8 23 -2.7 27.1 -85.6 -3.37
14:59 1025 30.27 854 25.22 18.9 66 23 -2.7 27.1 -85.6 -3.37
15:00 1025 30.27 854 25.22 19 66.1 26 -0.6 30.8 -85.5 -3.366
15:01 1025 30.27 854 25.22 19.1 66.3 23 -2.4 27.7 -85.5 -3.366
15:02 1025 30.27 854 25.22 19 66.2 25 -1.2 29.8 -85.5 -3.366
15:03 1025 30.27 854 25.22 18.9 66.1 24 -1.7 28.9 -85.5 -3.366
15:04 1025 30.27 854 25.22 19 66.1 25 -1.3 29.7 -85.5 -3.366
15:05 1025 30.27 854 25.22 18.9 66 23 -2.6 27.3 -85.5 -3.366
15:06 1025 30.27 854 25.22 18.9 66.1 24 -1.9 28.5 -85.5 -3.366
15:07 1025 30.27 854 25.22 18.9 66.1 23 -2.5 27.5 -85.5 -3.366
15:08 1025 30.27 854 25.22 18.9 66.1 23 -2.3 27.9 -85.5 -3.366
15:09 1025 30.27 854 25.22 18.9 66.1 22 -2.9 26.8 -85.5 -3.366
15:10 1024 30.24 854 25.22 18.9 66.1 26 -0.9 30.3 -85.4 -3.362
15:11 1024 30.24 854 25.22 19 66.2 24 -1.7 28.9 -85.4 -3.362
15:12 1024 30.24 854 25.22 19.1 66.4 26 -0.7 30.7 -85.4 -3.362
15:13 1024 30.24 854 25.22 19.3 66.7 24 -1.6 29.2 -85.4 -3.362
15:14 1024 30.24 854 25.22 19.3 66.7 24 -1.5 29.2 -85.4 -3.362
15:15 1024 30.24 854 25.22 19.1 66.4 25 -1.1 30 -85.4 -3.362
15:16 1024 30.24 854 25.22 19 66.1 24 -2.1 28.2 -85.4 -3.362
15:17 1024 30.24 854 25.22 18.9 66 24 -2 28.4 -85.3 -3.358
15:18 1024 30.24 854 25.22 18.8 65.9 26 -1.2 29.8 -85.3 -3.358
15:19 1024 30.24 854 25.22 18.9 66 22 -3.1 26.4 -85.3 -3.358
15:20 1024 30.24 854 25.22 18.9 66 29 0.4 32.7 -85.3 -3.358
15:21 1024 30.24 854 25.22 18.9 66.1 23 -2.6 27.3 -85.3 -3.358
15:22 1024 30.24 854 25.22 18.9 66.1 27 -0.5 31.1 -85.3 -3.358
15:23 1024 30.24 854 25.22 19 66.2 25 -1.4 29.4 -85.3 -3.358
15:24 1024 30.24 854 25.22 19 66.3 22 -2.9 26.8 -85.2 -3.354
15:25 1024 30.24 854 25.22 19.1 66.4 22 -2.8 26.9 -85.2 -3.354
15:26 1024 30.24 854 25.22 19.2 66.5 24 -1.8 28.8 -85.2 -3.354
15:27 1024 30.24 854 25.22 19.2 66.6 25 -1.3 29.6 -85.2 -3.354
15:28 1024 30.24 854 25.22 19.2 66.5 22 -2.9 26.7 -85.2 -3.354
15:29 1024 30.24 854 25.22 19.2 66.5 26 -0.9 30.4 -85.1 -3.35
15:30 1024 30.24 854 25.22 19.2 66.5 23 -2.3 27.8 -85.1 -3.35
15:31 1024 30.24 854 25.22 19.2 66.6 23 -2.2 28 -85.1 -3.35
15:32 1024 30.24 854 25.22 19.2 66.5 26 -0.7 30.7 -85.1 -3.35
15:33 1024 30.24 854 25.22 19.2 66.5 23 -2 28.3 -85.1 -3.35
15:34 1024 30.24 854 25.22 19.3 66.7 22 -2.7 27.1 -85.1 -3.35
15:35 1024 30.24 854 25.22 19.3 66.7 23 -2.4 27.7 -85 -3.346
15:36 1024 30.24 854 25.22 19.3 66.7 26 -0.5 31.1 -85 -3.346
15:37 1024 30.24 854 25.22 19.4 66.8 26 -0.4 31.4 -85 -3.346
15:38 1024 30.24 854 25.22 19.4 66.9 22 -2.5 27.5 -85 -3.346
15:39 1024 30.24 854 25.22 19.3 66.7 27 -0 31.9 -85 -3.346
15:40 1024 30.24 854 25.22 19.3 66.8 24 -1.4 29.5 -85 -3.346
15:41 1024 30.24 854 25.22 19.4 66.9 24 -1.5 29.3 -84.9 -3.343
15:42 1024 30.24 853 25.19 19.4 67 26 -0.3 31.5 -84.9 -3.343
15:43 1024 30.24 854 25.22 19.5 67.2 25 -1 30.2 -84.9 -3.343
15:44 1024 30.24 854 25.22 19.6 67.4 22 -2.5 27.5 -84.9 -3.343
15:45 1024 30.24 854 25.22 19.5 67.1 22 -2.4 27.7 -84.9 -3.343
15:46 1024 30.24 854 25.22 19.3 66.8 23 -1.9 28.5 -84.9 -3.343
15:47 1024 30.24 853 25.19 19.2 66.6 25 -1 30.3 -84.9 -3.343
15:48 1024 30.24 853 25.19 19.3 66.7 23 -2 28.4 -84.9 -3.343
15:49 1024 30.24 853 25.19 19.4 66.9 24 -1.6 29.2 -84.8 -3.339
15:50 1024 30.24 853 25.19 19.4 66.9 26 -0.7 30.7 -84.8 -3.339
15:51 1024 30.24 853 25.19 19.4 67 25 -1 30.3 -84.8 -3.339
15:52 1024 30.24 853 25.19 19.5 67.1 23 -1.9 28.5 -84.7 -3.335
15:53 1024 30.24 853 25.19 19.5 67.1 22 -2.5 27.5 -84.7 -3.335
15:54 1024 30.24 853 25.19 19.4 66.9 21 -3 26.6 -84.7 -3.335
15:55 1024 30.24 853 25.19 19.4 67 21 -3 26.5 -84.7 -3.335
15:56 1024 30.24 853 25.19 19.6 67.2 21 -3.1 26.5 -84.7 -3.335
15:57 1024 30.24 853 25.19 19.7 67.5 22 -2.2 28 -84.6 -3.331
15:58 1024 30.24 853 25.19 19.9 67.8 24 -1 30.2 -84.6 -3.331
15:59 1024 30.24 853 25.19 19.8 67.6 23 -1.6 29.1 -84.6 -3.331
16:00 1024 30.24 853 25.19 19.6 67.3 25 -0.9 30.3 -84.6 -3.331
16:01 1024 30.24 853 25.19 19.6 67.3 23 -1.8 28.7 -84.6 -3.331
16:02 1024 30.24 853 25.19 19.5 67.1 22 -2.4 27.7 -84.6 -3.331
16:03 1024 30.24 853 25.19 19.4 67 26 -0.2 31.6 -84.6 -3.331
16:04 1024 30.24 853 25.19 19.4 66.9 22 -2.7 27.1 -84.5 -3.327
16:05 1024 30.24 853 25.19 19.3 66.8 23 -2.1 28.2 -84.5 -3.327
16:06 1024 30.24 853 25.19 19.3 66.7 25 -1.2 29.8 -84.5 -3.327
16:07 1024 30.24 853 25.19 19.4 66.9 24 -1.5 29.3 -84.5 -3.327
16:08 1024 30.24 853 25.19 19.5 67.1 24 -1.2 29.9 -84.5 -3.327
16:09 1024 30.24 853 25.19 19.5 67 24 -1.2 29.8 -84.5 -3.327
16:10 1024 30.24 853 25.19 19.5 67 22 -2.9 26.8 -84.4 -3.323
16:11 1024 30.24 853 25.19 19.5 67.2 21 -2.9 26.7 -84.4 -3.323
16:12 1024 30.24 853 25.19 19.5 67.2 22 -2.4 27.6 -84.4 -3.323
16:13 1024 30.24 853 25.19 19.5 67.1 21 -3 26.6 -84.4 -3.323
16:14 1024 30.24 853 25.19 19.5 67 21 -3.1 26.5 -84.4 -3.323
16:15 1024 30.24 853 25.19 19.5 67.1 26 -0.6 31 -84.4 -3.323
16:16 1024 30.24 853 25.19 19.6 67.2 26 -0.5 31 -84.3 -3.319
16:17 1024 30.24 853 25.19 19.6 67.3 23 -1.6 29 -84.4 -3.323
16:18 1024 30.24 853 25.19 19.7 67.4 26 -0.3 31.5 -84.4 -3.323
16:19 1024 30.24 853 25.19 19.7 67.4 25 -0.9 30.4 -84.4 -3.323
16:20 1024 30.24 853 25.19 19.6 67.3 23 -2.1 28.3 -84.4 -3.323
16:21 1024 30.24 853 25.19 19.5 67.1 24 -1.2 29.8 -84.4 -3.323
16:22 1024 30.24 853 25.19 19.5 67.2 23 -1.9 28.6 -84.3 -3.319
16:23 1024 30.24 853 25.19 19.6 67.2 23 -1.9 28.7 -84.3 -3.319
16:24 1024 30.24 853 25.19 19.6 67.2 22 -2.3 27.8 -84.3 -3.319
16:25 1024 30.24 853 25.19 19.6 67.3 27 0.3 32.6 -84.3 -3.319
16:26 1024 30.24 853 25.19 19.8 67.6 22 -2.2 28.1 -84.3 -3.319
16:27 1024 30.24 853 25.19 19.7 67.4 24 -1.4 29.5 -84.3 -3.319
16:28 1024 30.24 853 25.19 19.8 67.6 22 -2.3 27.8 -84.3 -3.319
16:29 1024 30.24 853 25.19 19.9 67.7 24 -1.1 30 -84.3 -3.319
16:30 1024 30.24 853 25.19 20 67.9 24 -1.3 29.6 -84.2 -3.315
16:31 1024 30.24 853 25.19 20 68 22 -2.2 28 -84.2 -3.315
16:32 1024 30.24 853 25.19 19.9 67.8 25 -0.4 31.3 -84.2 -3.315
16:33 1024 30.24 853 25.19 19.8 67.6 21 -2.7 27.1 -84.2 -3.315
16:34 1024 30.24 853 25.19 19.7 67.5 21 -3.1 26.3 -84.2 -3.315
16:35 1024 30.24 853 25.19 19.7 67.4 21 -3.2 26.3 -84.2 -3.315
16:36 1024 30.24 853 25.19 19.7 67.5 24 -1.5 29.2 -84.2 -3.315
16:37 1024 30.24 853 25.19 19.8 67.7 22 -2.4 27.7 -84.2 -3.315
16:38 1024 30.24 853 25.19 19.9 67.9 24 -1.1 30 -84.2 -3.315
16:39 1024 30.24 853 25.19 19.9 67.8 22 -2.1 28.2 -84.2 -3.315
16:40 1024 30.24 853 25.19 19.8 67.7 24 -1.4 29.5 -84.2 -3.315
16:41 1024 30.24 853 25.19 19.8 67.6 22 -2.3 27.8 -84.2 -3.315
16:42 1024 30.24 853 25.19 19.7 67.5 23 -1.8 28.7 -84.1 -3.311
16:43 1024 30.24 853 25.19 19.8 67.6 23 -1.6 29.1 -84.1 -3.311
16:44 1024 30.24 853 25.19 19.9 67.8 25 -0.6 30.9 -84.1 -3.311
16:45 1024 30.24 853 25.19 20 68 24 -1.1 30.1 -84.1 -3.311
16:46 1024 30.24 853 25.19 20 67.9 26 0.1 32.1 -84.1 -3.311
16:47 1024 30.24 853 25.19 20 68 24 -1.3 29.7 -84.1 -3.311
16:48 1024 30.24 853 25.19 20 68 24 -0.8 30.5 -84.1 -3.311
16:49 1024 30.24 853 25.19 20 68 25 -0.3 31.5 -84 -3.307
16:50 1024 30.24 853 25.19 20 67.9 24 -0.9 30.4 -84 -3.307
16:51 1024 30.24 853 25.19 20 68 26 0.2 32.4 -84 -3.307
16:52 1024 30.24 853 25.19 20 68.1 28 1 33.7 -84 -3.307
16:53 1024 30.24 853 25.19 20.1 68.2 25 -0.5 31 -84 -3.307
16:54 1024 30.24 853 25.19 20.2 68.3 20 -3.3 26 -84 -3.307
16:55 1024 30.24 853 25.19 20 68 21 -3.1 26.5 -84 -3.307
16:56 1024 30.24 853 25.19 19.9 67.8 22 -2.2 28 -84 -3.307
16:57 1024 30.24 853 25.19 19.9 67.9 22 -2.2 28.1 -84 -3.307
16:58 1024 30.24 853 25.19 20 67.9 27 0.5 32.9 -84 -3.307
16:59 1024 30.24 853 25.19 20 68 20 -3.2 26.2 -84 -3.307
17:00 1024 30.24 853 25.19 19.9 67.9 23 -1.8 28.7 -84 -3.307
17:01 1024 30.24 853 25.19 19.9 67.9 23 -1.7 29 -84 -3.307
17:02 1024 30.24 853 25.19 19.9 67.9 22 -2.3 27.9 -84 -3.307
17:03 1024 30.24 853 25.19 19.9 67.8 21 -2.6 27.3 -84 -3.307
17:04 1024 30.24 853 25.19 19.9 67.9 24 -0.9 30.5 -84 -3.307
17:05 1024 30.24 853 25.19 19.9 67.9 25 -0.3 31.5 -84 -3.307
17:06 1024 30.24 853 25.19 19.9 67.7 23 -1.9 28.6 -84 -3.307
17:07 1024 30.24 853 25.19 19.8 67.7 23 -1.9 28.6 -84 -3.307
17:08 1024 30.24 853 25.19 19.9 67.7 21 -2.7 27.1 -84 -3.307
17:09 1024 30.24 853 25.19 19.9 67.7 23 -1.5 29.2 -83.9 -3.303
17:10 1024 30.24 853 25.19 19.9 67.8 24 -1.2 29.8 -83.9 -3.303
17:11 1024 30.24 853 25.19 19.8 67.7 23 -1.6 29.2 -83.9 -3.303
17:12 1024 30.24 853 25.19 19.8 67.7 24 -1.2 29.8 -83.9 -3.303
17:13 1024 30.24 853 25.19 19.9 67.8 24 -1.3 29.6 -83.9 -3.303
17:14 1024 30.24 853 25.19 20 68 20 -3.2 26.2 -83.9 -3.303
17:15 1024 30.24 853 25.19 20.1 68.2 20 -3.7 25.3 -83.9 -3.303
17:16 1024 30.24 853 25.19 20.2 68.4 20 -3.6 25.5 -83.9 -3.303
17:17 1024 30.24 853 25.19 20.2 68.4 22 -2.2 28 -83.9 -3.303
17:18 1024 30.24 853 25.19 20.1 68.2 21 -2.5 27.5 -83.9 -3.303
17:19 1024 30.24 853 25.19 20.1 68.1 23 -1.7 28.9 -83.9 -3.303
17:20 1024 30.24 853 25.19 20.1 68.1 22 -2.5 27.6 -83.9 -3.303
17:21 1024 30.24 853 25.19 20.1 68.2 23 -1.7 29 -83.9 -3.303
17:22 1024 30.24 853 25.19 20.2 68.4 23 -1.6 29.1 -83.8 -3.299
17:23 1024 30.24 853 25.19 20.3 68.6 23 -1.2 29.8 -83.8 -3.299
17:24 1024 30.24 853 25.19 20.4 68.7 22 -1.6 29.1 -83.8 -3.299
17:25 1024 30.24 853 25.19 20.4 68.6 24 -1 30.3 -83.8 -3.299
17:26 1024 30.24 853 25.19 20.3 68.6 21 -2.7 27.1 -83.8 -3.299
17:27 1024 30.24 853 25.19 20.4 68.7 20 -3.3 26 -83.8 -3.299
17:28 1024 30.24 853 25.19 20.5 68.8 22 -2 28.4 -83.8 -3.299
17:29 1024 30.24 853 25.19 20.6 69.1 22 -1.4 29.5 -83.8 -3.299
17:30 1024 30.24 853 25.19 20.8 69.5 22 -1.6 29.2 -83.8 -3.299
17:31 1024 30.24 853 25.19 21 69.7 22 -1.7 28.9 -83.8 -3.299
17:32 1024 30.24 853 25.19 21 69.8 22 -1.2 29.9 -83.8 -3.299
17:33 1024 30.24 853 25.19 20.9 69.7 20 -2.7 27.1 -83.8 -3.299
17:34 1024 30.24 853 25.19 20.8 69.5 19 -3.5 25.7 -83.8 -3.299
17:35 1024 30.24 853 25.19 20.8 69.4 21 -2 28.3 -83.8 -3.299
17:36 1024 30.24 853 25.19 20.7 69.3 24 -0.5 31.1 -83.8 -3.299
17:37 1024 30.24 853 25.19 20.5 68.9 23 -1.1 29.9 -83.8 -3.299
17:38 1024 30.24 853 25.19 20.3 68.6 21 -2.3 27.9 -83.8 -3.299
17:39 1024 30.24 853 25.19 20.2 68.3 23 -1.3 29.7 -83.8 -3.299
17:40 1024 30.24 853 25.19 20.1 68.1 20 -3.5 25.7 -83.8 -3.299
17:41 1024 30.24 853 25.19 20 68 20 -3.3 26.1 -83.8 -3.299
17:42 1024 30.24 853 25.19 20 68.1 22 -2 28.4 -83.8 -3.299
17:43 1024 30.24 853 25.19 20.1 68.1 21 -2.7 27.1 -83.8 -3.299
17:44 1024 30.24 853 25.19 20.1 68.3 23 -1.4 29.6 -83.8 -3.299
17:45 1024 30.24 853 25.19 20.2 68.4 20 -3.4 25.9 -83.8 -3.299
17:46 1024 30.24 853 25.19 20.3 68.5 19 -3.8 25.2 -83.8 -3.299
17:47 1024 30.24 853 25.19 20.4 68.8 19 -3.9 25 -83.8 -3.299
17:48 1024 30.24 853 25.19 20.6 69.1 20 -2.7 27.1 -83.8 -3.299
17:49 1024 30.24 853 25.19 20.8 69.4 20 -3 26.6 -83.8 -3.299
17:50 1024 30.24 853 25.19 21 69.7 20 -2.8 27 -83.8 -3.299
17:51 1024 30.24 853 25.19 21.2 70.2 19 -2.8 26.9 -83.8 -3.299
17:52 1024 30.24 853 25.19 21.5 70.6 21 -1.6 29.1 -83.8 -3.299
17:53 1024 30.24 853 25.19 21.7 71.1 19 -2.7 27.1 -83.8 -3.299
17:54 1024 30.24 853 25.19 21.8 71.3 24 0.8 33.4 -83.8 -3.299
17:55 1024 30.24 853 25.19 21.7 71.1 18 -3.5 25.7 -83.8 -3.299
17:56 1024 30.24 853 25.19 21.5 70.8 20 -2.3 27.9 -83.8 -3.299
17:57 1024 30.24 853 25.19 21.5 70.7 21 -1.5 29.3 -83.8 -3.299
17:58 1024 30.24 853 25.19 21.5 70.7 21 -1.6 29.1 -83.8 -3.299
17:59 1024 30.24 853 25.19 21.5 70.7 22 -1.2 29.8 -83.8 -3.299
18:00 1024 30.24 853 25.19 21.3 70.4 21 -1.9 28.6 -83.8 -3.299
18:01 1024 30.24 853 25.19 21.2 70.2 18 -3.9 25 -83.8 -3.299
18:02 1024 30.24 853 25.19 21.1 70.1 18 -3.7 25.3 -83.8 -3.299
18:03 1024 30.24 853 25.19 21.2 70.1 20 -2.4 27.7 -83.8 -3.299
18:04 1024 30.24 853 25.19 21.2 70.2 21 -1.8 28.8 -83.8 -3.299
18:05 1024 30.24 853 25.19 21.3 70.4 23 -0.2 31.6 -83.8 -3.299
18:06 1024 30.24 853 25.19 21.3 70.4 23 -0.5 31.1 -83.8 -3.299
18:07 1024 30.24 853 25.19 21.3 70.4 24 0.1 32.2 -83.8 -3.299
18:08 1024 30.24 853 25.19 21.1 70 21 -1.7 28.9 -83.8 -3.299
18:09 1024 30.24 853 25.19 20.9 69.6 23 -0.7 30.7 -83.9 -3.303
18:10 1024 30.24 853 25.19 20.6 69.2 25 0.3 32.6 -83.9 -3.303
18:11 1024 30.24 853 25.19 20.4 68.6 23 -1.4 29.5 -83.9 -3.303
18:12 1024 30.24 853 25.19 20.1 68.2 22 -1.9 28.6 -83.9 -3.303
18:13 1024 30.24 853 25.19 20 68 20 -3.4 25.9 -83.9 -3.303
18:14 1024 30.24 853 25.19 19.9 67.8 23 -1.9 28.5 -83.9 -3.303
18:15 1024 30.24 853 25.19 19.9 67.7 24 -1.1 30 -84 -3.307
18:16 1024 30.24 853 25.19 19.8 67.6 25 -0.8 30.5 -84 -3.307
18:17 1024 30.24 853 25.19 19.8 67.6 27 0.2 32.4 -84 -3.307
18:18 1024 30.24 853 25.19 19.7 67.5 25 -0.9 30.4 -84 -3.307
18:19 1024 30.24 853 25.19 19.7 67.5 25 -0.5 31 -84 -3.307
18:20 1024 30.24 853 25.19 19.7 67.4 24 -1.1 30 -84 -3.307
18:21 1024 30.24 853 25.19 19.6 67.2 26 -0.2 31.7 -84 -3.307
18:22 1024 30.24 853 25.19 19.5 67.1 28 0.9 33.6 -84 -3.307
18:23 1024 30.24 853 25.19 19.3 66.8 29 1.1 34 -84 -3.307
18:24 1024 30.24 853 25.19 19.3 66.7 30 1.4 34.5 -84 -3.307
18:25 1024 30.24 853 25.19 19.1 66.4 29 0.6 33.2 -84.1 -3.311
18:26 1024 30.24 853 25.19 19 66.2 31 1.8 35.3 -84.1 -3.311
18:27 1024 30.24 853 25.19 18.9 66 30 0.9 33.6 -84.1 -3.311
18:28 1024 30.24 853 25.19 18.7 65.7 28 0.2 32.4 -84.1 -3.311
18:29 1024 30.24 853 25.19 18.7 65.7 28 -0.1 31.8 -84.2 -3.315
18:30 1024 30.24 853 25.19 18.7 65.7 28 0.1 32.1 -84.2 -3.315
18:31 1024 30.24 853 25.19 18.7 65.7 27 -0.8 30.6 -84.2 -3.315
18:32 1024 30.24 853 25.19 18.8 65.8 26 -0.8 30.6 -84.2 -3.315
18:33 1024 30.24 853 25.19 18.8 65.8 28 -0.2 31.6 -84.3 -3.319
18:34 1024 30.24 853 25.19 18.8 65.8 29 0.5 32.9 -84.3 -3.319
18:35 1024 30.24 853 25.19 18.7 65.7 29 0.6 33.1 -84.3 -3.319
18:36 1024 30.24 853 25.19 18.7 65.7 30 1.1 33.9 -84.4 -3.323
18:37 1024 30.24 853 25.19 18.7 65.6 24 -2.1 28.2 -84.4 -3.323
18:38 1024 30.24 853 25.19 18.7 65.6 24 -2 28.4 -84.4 -3.323
18:39 1024 30.24 853 25.19 18.7 65.7 24 -2.1 28.3 -84.4 -3.323
18:40 1024 30.24 853 25.19 18.8 65.8 23 -2.4 27.6 -84.5 -3.327
18:41 1024 30.24 853 25.19 18.7 65.7 24 -1.9 28.5 -84.5 -3.327
18:42 1024 30.24 853 25.19 18.7 65.6 26 -1.2 29.8 -84.5 -3.327
18:43 1024 30.24 853 25.19 18.6 65.6 23 -2.6 27.3 -84.6 -3.331
18:44 1024 30.24 853 25.19 18.7 65.6 24 -1.9 28.6 -84.6 -3.331
18:45 1024 30.24 853 25.19 18.5 65.4 29 0.1 32.2 -84.6 -3.331
18:46 1024 30.24 853 25.19 18.4 65.1 27 -0.7 30.7 -84.6 -3.331
18:47 1024 30.24 853 25.19 18.3 64.9 30 0.6 33 -84.7 -3.335
18:48 1024 30.24 853 25.19 18 64.3 36 2.9 37.1 -84.7 -3.335
18:49 1024 30.24 853 25.19 17.5 63.6 34 1.5 34.7 -84.7 -3.335
18:50 1024 30.24 853 25.19 17.3 63.2 30 -0.1 31.8 -84.7 -3.335
18:51 1024 30.24 853 25.19 17.3 63.1 30 -0.1 31.7 -84.8 -3.339
18:52 1024 30.24 853 25.19 17.3 63.1 30 -0.4 31.2 -84.8 -3.339
18:53 1024 30.24 853 25.19 17.3 63.1 29 -0.6 30.9 -84.9 -3.343
18:54 1024 30.24 853 25.19 17.3 63.1 30 -0.4 31.3 -84.9 -3.343
18:55 1024 30.24 853 25.19 17.2 63 31 0.2 32.4 -84.9 -3.343
18:56 1023 30.21 853 25.19 17 62.7 33 0.6 33 -85 -3.346
18:57 1023 30.21 853 25.19 16.8 62.3 33 0.6 33.1 -85 -3.346
18:58 1023 30.21 853 25.19 16.6 61.8 35 1.2 34.2 -85 -3.346
18:59 1023 30.21 853 25.19 16.3 61.4 36 1.4 34.6 -85 -3.346
19:00 1024 30.24 853 25.19 16 60.8 37 1.6 34.9 -85.1 -3.35
19:01 1023 30.21 853 25.19 15.6 60.1 38 1.6 34.9 -85.1 -3.35
19:02 1023 30.21 853 25.19 15.4 59.6 40 1.9 35.5 -85.1 -3.35
19:03 1023 30.21 853 25.19 15.1 59.2 40 1.7 35 -85.2 -3.354
19:04 1023 30.21 853 25.19 15 59 40 1.7 35.1 -85.2 -3.354
19:05 1023 30.21 853 25.19 14.9 58.8 40 1.6 34.8 -85.2 -3.354
19:06 1023 30.21 853 25.19 14.8 58.7 40 1.3 34.3 -85.3 -3.358
19:07 1024 30.24 853 25.19 14.8 58.7 39 1.2 34.2 -85.3 -3.358
19:08 1023 30.21 853 25.19 14.8 58.7 40 1.4 34.6 -85.4 -3.362
19:09 1023 30.21 853 25.19 14.7 58.4 40 1.2 34.1 -85.4 -3.362
19:10 1024 30.24 853 25.19 14.6 58.2 40 1.2 34.2 -85.4 -3.362
19:11 1024 30.24 853 25.19 14.4 58 41 1.3 34.4 -85.5 -3.366
19:12 1024 30.24 853 25.19 14.3 57.7 40 1 33.9 -85.5 -3.366
19:13 1024 30.24 853 25.19 14.3 57.7 40 1 33.8 -85.6 -3.37
19:14 1024 30.24 853 25.19 14.2 57.6 41 1.2 34.1 -85.6 -3.37
19:15 1024 30.24 853 25.19 14.1 57.3 40 0.9 33.5 -85.6 -3.37
19:16 1024 30.24 853 25.19 14.1 57.4 40 0.9 33.6 -85.7 -3.374
19:17 1024 30.24 853 25.19 14.1 57.4 40 0.9 33.6 -85.7 -3.374
19:18 1024 30.24 853 25.19 14 57.2 43 1.8 35.2 -85.8 -3.378
19:19 1024 30.24 853 25.19 13.5 56.2 47 2.5 36.5 -85.8 -3.378
19:20 1024 30.24 853 25.19 12.5 54.4 51 2.6 36.6 -85.8 -3.378
19:21 1024 30.24 853 25.19 11.6 52.9 53 2.4 36.4 -85.8 -3.378
19:22 1024 30.24 853 25.19 11.2 52.2 53 2.2 35.9 -85.9 -3.382
19:23 1024 30.24 853 25.19 11 51.9 54 2.1 35.8 -85.9 -3.382
19:24 1024 30.24 853 25.19 10.9 51.6 54 2.1 35.8 -86 -3.386
19:25 1024 30.24 853 25.19 10.7 51.3 55 2.1 35.8 -86 -3.386
19:26 1024 30.24 853 25.19 10.6 51.1 55 2 35.6 -86 -3.386
19:27 1024 30.24 853 25.19 10.5 50.8 55 1.9 35.4 -86.1 -3.39
19:28 1024 30.24 853 25.19 10.4 50.7 55 1.9 35.4 -86.1 -3.39
19:29 1023 30.21 853 25.19 10.3 50.6 55 1.8 35.2 -86.1 -3.39
19:30 1024 30.24 853 25.19 10.2 50.4 56 1.9 35.4 -86.2 -3.394
19:31 1023 30.21 853 25.19 10.1 50.2 56 1.8 35.2 -86.2 -3.394
19:32 1024 30.24 853 25.19 10 49.9 57 1.8 35.3 -86.3 -3.398
19:33 1023 30.21 853 25.19 9.8 49.6 58 1.9 35.5 -86.3 -3.398
19:34 1024 30.24 853 25.19 9.6 49.2 58 1.8 35.3 -86.3 -3.398
19:35 1024 30.24 853 25.19 9.4 49 59 1.8 35.2 -86.4 -3.402
19:36 1024 30.24 853 25.19 9.2 48.6 59 1.7 35.1 -86.4 -3.402
19:37 1024 30.24 853 25.19 9 48.3 60 1.7 35.1 -86.5 -3.406
19:38 1024 30.24 853 25.19 8.8 47.9 60 1.5 34.7 -86.5 -3.406
19:39 1024 30.24 853 25.19 8.8 47.9 59 1.2 34.2 -86.5 -3.406
19:40 1024 30.24 853 25.19 9 48.2 58 1.3 34.3 -86.6 -3.409
19:41 1024 30.24 853 25.19 9 48.3 58 1.3 34.3 -86.6 -3.409
19:42 1024 30.24 853 25.19 9 48.3 58 1.3 34.3 -86.7 -3.413
19:43 1024 30.24 853 25.19 9.1 48.4 58 1.3 34.3 -86.7 -3.413
19:44 1024 30.24 853 25.19 9.2 48.6 57 1.2 34.1 -86.7 -3.413
19:45 1024 30.24 853 25.19 9.3 48.8 56 1.1 34 -86.8 -3.417
19:46 1024 30.24 853 25.19 9.5 49 56 1 33.9 -86.8 -3.417
19:47 1024 30.24 853 25.19 9.6 49.3 54 0.8 33.5 -86.9 -3.421
19:48 1024 30.24 853 25.19 9.7 49.5 54 0.9 33.7 -86.9 -3.421
19:49 1024 30.24 853 25.19 9.9 49.8 53 0.9 33.6 -86.9 -3.421
19:50 1024 30.24 853 25.19 10 50 53 1 33.8 -87 -3.425
19:51 1024 30.24 853 25.19 10 50 54 1 33.9 -87 -3.425
19:52 1024 30.24 853 25.19 10 50 52 0.8 33.4 -87.1 -3.429
19:53 1024 30.24 853 25.19 10 50 53 1 33.9 -87.1 -3.429
19:54 1024 30.24 853 25.19 9.9 49.8 54 1 33.8 -87.1 -3.429
19:55 1024 30.24 853 25.19 9.9 49.7 54 0.9 33.7 -87.1 -3.429
19:56 1024 30.24 853 25.19 9.8 49.6 55 1.1 34 -87.2 -3.433
19:57 1024 30.24 853 25.19 9.6 49.3 55 1 33.8 -87.2 -3.433
19:58 1024 30.24 853 25.19 9.6 49.3 55 1.1 33.9 -87.2 -3.433
19:59 1024 30.24 853 25.19 9.5 49.1 54 0.8 33.5 -87.3 -3.437
20:00 1024 30.24 853 25.19 9.6 49.2 54 0.7 33.3 -87.3 -3.437
20:01 1024 30.24 853 25.19 9.7 49.4 54 0.9 33.6 -87.3 -3.437
20:02 1024 30.24 853 25.19 9.5 49.2 56 1.3 34.4 -87.3 -3.437
20:03 1024 30.24 853 25.19 9.2 48.6 57 1.1 34 -87.4 -3.441
20:04 1024 30.24 853 25.19 9.1 48.3 56 0.8 33.4 -87.4 -3.441
20:05 1024 30.24 853 25.19 9.2 48.5 56 0.8 33.5 -87.4 -3.441
20:06 1024 30.24 853 25.19 9.2 48.6 56 0.9 33.5 -87.4 -3.441
20:07 1024 30.24 853 25.19 9.2 48.6 55 0.7 33.3 -87.4 -3.441
20:08 1024 30.24 853 25.19 9.3 48.7 55 0.6 33.2 -87.5 -3.445
20:09 1024 30.24 853 25.19 9.4 48.9 54 0.5 32.9 -87.5 -3.445
20:10 1024 30.24 853 25.19 9.6 49.3 52 0.3 32.5 -87.5 -3.445
20:11 1024 30.24 853 25.19 9.8 49.6 52 0.3 32.5 -87.5 -3.445
20:12 1024 30.24 853 25.19 9.9 49.9 52 0.6 33 -87.6 -3.449
20:13 1024 30.24 853 25.19 9.9 49.8 51 0.3 32.6 -87.6 -3.449
20:14 1024 30.24 853 25.19 10 50 51 0.3 32.6 -87.6 -3.449
20:15 1024 30.24 853 25.19 10.1 50.3 49 -0 31.9 -87.6 -3.449
20:16 1024 30.24 853 25.19 10.3 50.5 49 0 32.1 -87.6 -3.449
20:17 1024 30.24 853 25.19 10.5 50.8 49 0.1 32.3 -87.7 -3.453
20:18 1024 30.24 853 25.19 10.5 50.9 49 0.2 32.4 -87.7 -3.453
20:19 1024 30.24 853 25.19 10.5 50.8 50 0.4 32.7 -87.7 -3.453
20:20 1024 30.24 853 25.19 10.3 50.6 50 0.4 32.7 -87.7 -3.453
20:21 1024 30.24 853 25.19 10.3 50.5 51 0.5 32.9 -87.7 -3.453
20:22 1024 30.24 853 25.19 10.2 50.4 51 0.6 33.1 -87.8 -3.457
20:23 1024 30.24 853 25.19 10.1 50.1 52 0.6 33.1 -87.8 -3.457
20:24 1024 30.24 853 25.19 10 49.9 52 0.6 33 -87.8 -3.457
20:25 1024 30.24 853 25.19 9.9 49.7 52 0.4 32.7 -87.8 -3.457
20:26 1024 30.24 853 25.19 9.8 49.6 51 0.2 32.4 -87.8 -3.457
20:27 1024 30.24 853 25.19 9.9 49.7 52 0.4 32.7 -87.8 -3.457
20:28 1024 30.24 853 25.19 9.8 49.7 52 0.5 33 -87.9 -3.461
20:29 1024 30.24 853 25.19 9.7 49.5 52 0.4 32.8 -87.9 -3.461
20:30 1024 30.24 853 25.19 9.8 49.6 53 0.6 33.1 -87.9 -3.461
20:31 1024 30.24 853 25.19 9.8 49.7 53 0.8 33.5 -87.9 -3.461
20:32 1024 30.24 853 25.19 9.6 49.3 54 0.9 33.6 -87.9 -3.461
20:33 1024 30.24 853 25.19 9.5 49.1 55 1 33.8 -87.9 -3.461
20:34 1024 30.24 853 25.19 9.3 48.7 56 1.1 34 -88 -3.465
20:35 1024 30.24 853 25.19 9.1 48.3 57 1 33.8 -88 -3.465
20:36 1024 30.24 853 25.19 9 48.1 57 0.9 33.7 -88 -3.465
20:37 1024 30.24 853 25.19 8.9 48.1 56 0.6 33 -88 -3.465
20:38 1024 30.24 853 25.19 9.1 48.3 55 0.5 32.9 -88 -3.465
20:39 1024 30.24 853 25.19 9.2 48.5 53 0.2 32.3 -88 -3.465
20:40 1024 30.24 853 25.19 9.5 49 52 0.2 32.4 -88 -3.465
20:41 1024 30.24 853 25.19 9.7 49.5 51 0.2 32.3 -88 -3.465
20:42 1024 30.24 853 25.19 9.8 49.7 51 0.3 32.6 -88.1 -3.469
20:43 1024 30.24 853 25.19 9.8 49.7 52 0.4 32.7 -88.1 -3.469
20:44 1024 30.24 853 25.19 9.8 49.6 52 0.5 32.9 -88.1 -3.469
20:45 1024 30.24 853 25.19 9.7 49.5 52 0.4 32.7 -88.1 -3.469
20:46 1024 30.24 853 25.19 9.7 49.5 52 0.4 32.8 -88.1 -3.469
20:47 1024 30.24 853 25.19 9.7 49.4 53 0.7 33.2 -88.1 -3.469
20:48 1024 30.24 853 25.19 9.4 49 54 0.7 33.3 -88.2 -3.472
20:49 1024 30.24 853 25.19 9.2 48.5 55 0.5 32.9 -88.2 -3.472
20:50 1024 30.24 853 25.19 9.1 48.3 55 0.5 32.9 -88.2 -3.472
20:51 1024 30.24 853 25.19 8.9 48 56 0.6 33.1 -88.2 -3.472
20:52 1024 30.24 853 25.19 8.7 47.6 56 0.5 33 -88.2 -3.472
20:53 1024 30.24 853 25.19 8.6 47.5 56 0.3 32.5 -88.2 -3.472
20:54 1024 30.24 853 25.19 8.6 47.4 56 0.3 32.6 -88.2 -3.472
20:55 1024 30.24 853 25.19 8.6 47.4 56 0.3 32.6 -88.2 -3.472
20:56 1024 30.24 853 25.19 8.6 47.5 56 0.4 32.7 -88.3 -3.476
20:57 1024 30.24 853 25.19 8.5 47.4 57 0.4 32.8 -88.3 -3.476
20:58 1024 30.24 853 25.19 8.4 47.1 57 0.5 32.9 -88.3 -3.476
20:59 1024 30.24 853 25.19 8.3 47 57 0.4 32.7 -88.3 -3.476
21:00 1024 30.24 853 25.19 8.3 46.9 58 0.5 33 -88.3 -3.476
21:01 1024 30.24 853 25.19 8.1 46.6 59 0.6 33.1 -88.3 -3.476
21:02 1024 30.24 853 25.19 7.9 46.2 60 0.6 33 -88.3 -3.476
21:03 1024 30.24 853 25.19 7.7 45.8 60 0.5 32.9 -88.3 -3.476
21:04 1024 30.24 853 25.19 7.6 45.7 60 0.3 32.5 -88.4 -3.48
21:05 1024 30.24 853 25.19 7.7 45.8 59 0.2 32.4 -88.4 -3.48
21:06 1024 30.24 853 25.19 7.8 46 58 0.1 32.1 -88.4 -3.48
21:07 1024 30.24 853 25.19 8 46.4 57 0.1 32.1 -88.4 -3.48
21:08 1024 30.24 853 25.19 8.2 46.8 56 -0.1 31.8 -88.4 -3.48
21:09 1024 30.24 853 25.19 8.4 47.2 55 0 32 -88.4 -3.48
21:10 1024 30.24 853 25.19 8.6 47.5 55 0.1 32.2 -88.4 -3.48
21:11 1024 30.24 853 25.19 8.7 47.7 55 0.2 32.4 -88.4 -3.48
21:12 1024 30.24 853 25.19 8.7 47.6 56 0.5 32.8 -88.4 -3.48
21:13 1024 30.24 853 25.19 8.5 47.3 57 0.4 32.7 -88.5 -3.484
21:14 1024 30.24 853 25.19 8.5 47.2 56 0.2 32.4 -88.5 -3.484
21:15 1024 30.24 853 25.19 8.5 47.2 56 0.2 32.4 -88.5 -3.484
21:16 1024 30.24 853 25.19 8.5 47.2 56 0.2 32.4 -88.5 -3.484
21:17 1024 30.24 853 25.19 8.5 47.2 55 0.1 32.1 -88.5 -3.484
21:18 1024 30.24 853 25.19 8.5 47.3 55 0.1 32.1 -88.5 -3.484
21:19 1024 30.24 853 25.19 8.6 47.5 54 -0.2 31.6 -88.5 -3.484
21:20 1024 30.24 853 25.19 8.8 47.8 52 -0.4 31.3 -88.5 -3.484
21:21 1024 30.24 853 25.19 9 48.1 50 -0.8 30.6 -88.6 -3.488
21:22 1024 30.24 853 25.19 9.3 48.8 49 -0.7 30.7 -88.6 -3.488
21:23 1024 30.24 853 25.19 9.6 49.3 49 -0.5 31.1 -88.6 -3.488
21:24 1024 30.24 853 25.19 9.7 49.4 52 0.2 32.4 -88.6 -3.488
21:25 1024 30.24 853 25.19 9.3 48.7 52 0 32.1 -88.6 -3.488
21:26 1024 30.24 853 25.19 9 48.3 52 -0.3 31.5 -88.6 -3.488
21:27 1024 30.24 853 25.19 9 48.2 52 -0.3 31.4 -88.6 -3.488
21:28 1024 30.24 853 25.19 9 48.3 51 -0.5 31.2 -88.6 -3.488
21:29 1024 30.24 853 25.19 9.2 48.5 50 -0.7 30.7 -88.6 -3.488
21:30 1024 30.24 853 25.19 9.4 48.9 49 -0.7 30.7 -88.7 -3.492
21:31 1024 30.24 853 25.19 9.6 49.3 49 -0.5 31.1 -88.7 -3.492
21:32 1024 30.24 853 25.19 9.6 49.2 51 -0 32 -88.7 -3.492
21:33 1024 30.24 853 25.19 9.2 48.6 52 -0 32 -88.7 -3.492
21:34 1024 30.24 853 25.19 8.8 47.8 54 -0 31.9 -88.7 -3.492
21:35 1024 30.24 853 25.19 8.5 47.2 55 0 32 -88.7 -3.492
21:36 1024 30.24 853 25.19 8.1 46.6 56 -0 31.9 -88.7 -3.492
21:37 1024 30.24 853 25.19 7.9 46.1 58 0.1 32.1 -88.7 -3.492
21:38 1024 30.24 853 25.19 7.6 45.6 59 0.1 32.2 -88.7 -3.492
21:39 1024 30.24 853 25.19 7.2 45 60 0 32 -88.7 -3.492
21:40 1024 30.24 853 25.19 7.1 44.7 61 -0 31.9 -88.7 -3.492
21:41 1024 30.24 853 25.19 7 44.6 60 -0.2 31.6 -88.7 -3.492
21:42 1024 30.24 853 25.19 7.1 44.8 59 -0.3 31.5 -88.7 -3.492
21:43 1024 30.24 853 25.19 7.2 44.9 60 -0.2 31.7 -88.7 -3.492
21:44 1024 30.24 853 25.19 7.1 44.9 60 -0.2 31.7 -88.7 -3.492
21:45 1024 30.24 853 25.19 7.2 45 59 -0.2 31.6 -88.8 -3.496
21:46 1024 30.24 853 25.19 7.3 45.2 58 -0.4 31.3 -88.8 -3.496
21:47 1024 30.24 853 25.19 7.4 45.3 58 -0.3 31.4 -88.8 -3.496
21:48 1024 30.24 853 25.19 7.5 45.5 56 -0.7 30.7 -88.8 -3.496
21:49 1024 30.24 853 25.19 7.9 46.2 52 -1.3 29.7 -88.8 -3.496
21:50 1024 30.24 853 25.19 8.7 47.6 51 -0.9 30.3 -88.8 -3.496
21:51 1024 30.24 853 25.19 9 48.1 51 -0.7 30.8 -88.8 -3.496
21:52 1024 30.24 853 25.19 9.1 48.4 50 -0.7 30.7 -88.8 -3.496
21:53 1024 30.24 853 25.19 9.3 48.7 49 -1 30.2 -88.8 -3.496
21:54 1024 30.24 853 25.19 9.5 49.1 49 -0.7 30.8 -88.8 -3.496
21:55 1024 30.24 853 25.19 9.5 49.2 48 -0.8 30.6 -88.9 -3.5
21:56 1024 30.24 853 25.19 9.5 49.1 49 -0.6 31 -88.9 -3.5
21:57 1024 30.24 853 25.19 9.6 49.2 47 -1.1 30.1 -88.9 -3.5
21:58 1024 30.24 853 25.19 9.8 49.6 48 -0.7 30.7 -88.9 -3.5
21:59 1024 30.24 853 25.19 9.8 49.7 48 -0.7 30.8 -88.9 -3.5
22:00 1024 30.24 853 25.19 9.9 49.9 47 -0.8 30.6 -88.9 -3.5
22:01 1024 30.24 853 25.19 10.1 50.2 47 -0.8 30.6 -88.9 -3.5
22:02 1024 30.24 853 25.19 10.1 50.3 46 -0.9 30.4 -88.9 -3.5
22:03 1024 30.24 853 25.19 10.2 50.3 47 -0.7 30.7 -88.9 -3.5
22:04 1024 30.24 853 25.19 10.2 50.3 46 -0.9 30.4 -88.9 -3.5
22:05 1024 30.24 853 25.19 10.2 50.3 47 -0.7 30.7 -88.9 -3.5
22:06 1024 30.24 853 25.19 10.1 50.1 48 -0.5 31 -88.9 -3.5
22:07 1024 30.24 853 25.19 9.9 49.8 48 -0.5 31.2 -88.9 -3.5
22:08 1024 30.24 853 25.19 9.7 49.4 49 -0.5 31.2 -89 -3.504
22:09 1024 30.24 853 25.19 9.5 49.2 49 -0.6 30.9 -89 -3.504
22:10 1024 30.24 853 25.19 9.4 48.9 50 -0.4 31.2 -89 -3.504
22:11 1024 30.24 853 25.19 9.3 48.7 50 -0.5 31.1 -89 -3.504
22:12 1024 30.24 853 25.19 9.1 48.4 49 -0.9 30.4 -89 -3.504
22:13 1024 30.24 853 25.19 9.2 48.5 50 -0.7 30.8 -89 -3.504
22:14 1024 30.24 853 25.19 9.1 48.4 49 -0.9 30.3 -89 -3.504
22:15 1024 30.24 853 25.19 9.3 48.7 47 -1.3 29.6 -89 -3.504
22:16 1024 30.24 853 25.19 9.6 49.2 47 -1.2 29.8 -89 -3.504
22:17 1024 30.24 853 25.19 10.1 50.1 45 -1.3 29.6 -89 -3.504
22:18 1024 30.24 853 25.19 10.4 50.8 44 -1.3 29.6 -89 -3.504
22:19 1024 30.24 853 25.19 10.7 51.3 44 -1.1 30.1 -89 -3.504
22:20 1024 30.24 853 25.19 10.8 51.5 43 -1.1 30.1 -89 -3.504
22:21 1024 30.24 853 25.19 10.9 51.6 43 -1.1 30 -89 -3.504
22:22 1024 30.24 853 25.19 11 51.7 44 -0.8 30.6 -89 -3.504
22:23 1024 30.24 853 25.19 10.9 51.5 44 -0.9 30.3 -89 -3.504
22:24 1024 30.24 853 25.19 10.8 51.5 44 -0.9 30.4 -89 -3.504
22:25 1024 30.24 853 25.19 10.8 51.4 44 -1 30.2 -89.1 -3.508
22:26 1024 30.24 853 25.19 10.7 51.2 45 -0.8 30.5 -89.1 -3.508
22:27 1024 30.24 853 25.19 10.5 50.9 46 -0.7 30.8 -89.1 -3.508
22:28 1024 30.24 853 25.19 10.3 50.5 46 -0.8 30.5 -89.1 -3.508
22:29 1024 30.24 853 25.19 10.2 50.3 46 -0.8 30.6 -89.1 -3.508
22:30 1024 30.24 853 25.19 10.1 50.1 47 -0.8 30.6 -89 -3.504
22:31 1024 30.24 853 25.19 10 49.9 47 -0.7 30.8 -89 -3.504
22:32 1024 30.24 853 25.19 9.8 49.6 48 -0.7 30.7 -89 -3.504
22:33 1024 30.24 853 25.19 9.7 49.4 47 -1.2 29.9 -89.1 -3.508
22:34 1024 30.24 853 25.19 9.8 49.7 46 -1.1 29.9 -89.1 -3.508
22:35 1024 30.24 853 25.19 9.9 49.8 47 -0.9 30.3 -89.1 -3.508
22:36 1024 30.24 853 25.19 9.8 49.6 46 -1.2 29.9 -89.1 -3.508
22:37 1024 30.24 853 25.19 9.8 49.6 46 -1.2 29.8 -89.1 -3.508
22:38 1024 30.24 853 25.19 9.8 49.7 46 -1.2 29.9 -89.1 -3.508
22:39 1024 30.24 853 25.19 9.9 49.8 45 -1.3 29.6 -89.1 -3.508
22:40 1024 30.24 853 25.19 10 50 46 -1.2 29.9 -89.1 -3.508
22:41 1024 30.24 853 25.19 10 50 47 -0.9 30.4 -89.1 -3.508
22:42 1024 30.24 853 25.19 9.9 49.8 47 -0.9 30.4 -89.1 -3.508
22:43 1024 30.24 853 25.19 9.7 49.5 48 -0.7 30.7 -89.1 -3.508
22:44 1024 30.24 853 25.19 9.6 49.2 47 -1.1 30.1 -89.1 -3.508
22:45 1024 30.24 853 25.19 9.6 49.2 47 -1 30.1 -89.1 -3.508
22:46 1024 30.24 853 25.19 9.5 49.2 48 -0.9 30.4 -89.1 -3.508
22:47 1024 30.24 853 25.19 9.4 49 48 -1 30.2 -89.1 -3.508
22:48 1024 30.24 853 25.19 9.4 48.9 48 -0.9 30.3 -89.1 -3.508
22:49 1024 30.24 853 25.19 9.4 48.9 48 -1.2 29.9 -89.1 -3.508
22:50 1024 30.24 853 25.19 9.6 49.2 47 -1.2 29.9 -89.1 -3.508
22:51 1024 30.24 853 25.19 9.7 49.5 46 -1.2 29.8 -89.1 -3.508
22:52 1024 30.24 853 25.19 9.9 49.7 45 -1.4 29.5 -89.1 -3.508
22:53 1024 30.24 853 25.19 10.1 50.1 46 -1.1 30.1 -89.1 -3.508
22:54 1024 30.24 853 25.19 10 50 46 -1.1 30.1 -89.1 -3.508
22:55 1024 30.24 853 25.19 10 50 45 -1.4 29.6 -89.1 -3.508
22:56 1024 30.24 853 25.19 10.1 50.1 45 -1.1 29.9 -89.1 -3.508
22:57 1024 30.24 853 25.19 10.1 50.2 45 -1.3 29.7 -89.1 -3.508
22:58 1024 30.24 853 25.19 10.2 50.3 46 -1 30.2 -89.1 -3.508
22:59 1024 30.24 853 25.19 10.1 50.2 46 -0.8 30.5 -89.1 -3.508
23:00 1024 30.24 853 25.19 9.9 49.8 48 -0.6 30.9 -89.1 -3.508
23:01 1024 30.24 853 25.19 9.8 49.6 48 -0.6 30.9 -89.1 -3.508
23:02 1024 30.24 853 25.19 9.6 49.3 48 -0.9 30.4 -89.1 -3.508
23:03 1024 30.24 853 25.19 9.6 49.2 47 -1.1 30 -89.1 -3.508
23:04 1024 30.24 853 25.19 9.6 49.2 47 -1.1 30 -89.1 -3.508
23:05 1024 30.24 853 25.19 9.5 49.1 48 -0.8 30.5 -89.1 -3.508
23:06 1024 30.24 853 25.19 9.3 48.7 49 -0.8 30.6 -89.1 -3.508
23:07 1024 30.24 853 25.19 9.1 48.3 49 -0.9 30.4 -89.1 -3.508
23:08 1024 30.24 853 25.19 8.9 48.1 50 -1 30.2 -89.1 -3.508
23:09 1024 30.24 853 25.19 8.8 47.9 49 -1.3 29.7 -89.1 -3.508
23:10 1024 30.24 853 25.19 8.8 47.9 51 -0.6 30.9 -89.1 -3.508
23:11 1024 30.24 853 25.19 8.5 47.2 53 -0.6 31 -89.1 -3.508
23:12 1024 30.24 853 25.19 8.1 46.6 54 -0.6 31 -89.1 -3.508
23:13 1024 30.24 853 25.19 7.8 46.1 54 -0.8 30.6 -89.1 -3.508
23:14 1024 30.24 853 25.19 7.7 45.8 55 -0.9 30.4 -89.1 -3.508
23:15 1024 30.24 853 25.19 7.6 45.6 55 -0.9 30.3 -89.1 -3.508
23:16 1024 30.24 853 25.19 7.5 45.5 54 -1.1 30.1 -89.1 -3.508
23:17 1024 30.24 853 25.19 7.6 45.7 54 -1 30.1 -89.1 -3.508
23:18 1024 30.24 853 25.19 7.7 45.8 54 -1.1 29.9 -89.1 -3.508
23:19 1024 30.24 853 25.19 7.8 46 53 -1.1 30 -89.2 -3.512
23:20 1024 30.24 853 25.19 7.8 46.1 52 -1.4 29.5 -89.2 -3.512
23:21 1024 30.24 853 25.19 7.9 46.3 52 -1.4 29.4 -89.2 -3.512
23:22 1024 30.24 853 25.19 8.1 46.7 50 -1.6 29.1 -89.2 -3.512
23:23 1024 30.24 853 25.19 8.4 47.1 49 -1.6 29.2 -89.2 -3.512
23:24 1024 30.24 853 25.19 8.5 47.3 50 -1.3 29.7 -89.2 -3.512
23:25 1024 30.24 853 25.19 8.4 47.1 51 -1 30.2 -89.2 -3.512
23:26 1024 30.24 853 25.19 8.1 46.7 53 -0.8 30.6 -89.2 -3.512
23:27 1024 30.24 853 25.19 7.8 46.1 53 -1.1 30 -89.2 -3.512
23:28 1024 30.24 853 25.19 7.6 45.6 56 -0.5 31.1 -89.2 -3.512
23:29 1024 30.24 853 25.19 6.9 44.5 59 -0.4 31.3 -89.2 -3.512
23:30 1024 30.24 853 25.19 6.3 43.3 62 -0.5 31.1 -89.3 -3.516
23:31 1024 30.24 853 25.19 5.6 42.1 65 -0.4 31.2 -89.3 -3.516
23:32 1024 30.24 854 25.22 5 41 66 -0.8 30.6 -89.3 -3.516
23:33 1024 30.24 854 25.22 4.7 40.4 68 -0.8 30.5 -89.2 -3.512
23:34 1024 30.24 853 25.19 4.4 40 69 -0.8 30.5 -89.2 -3.512
23:35 1024 30.24 854 25.22 4.2 39.5 69 -0.9 30.3 -89.3 -3.516
23:36 1024 30.24 854 25.22 4.1 39.3 70 -0.8 30.5 -89.3 -3.516
23:37 1024 30.24 854 25.22 3.9 39.1 72 -0.7 30.7 -89.3 -3.516
23:38 1024 30.24 854 25.22 3.9 39 72 -0.8 30.6 -89.2 -3.512
23:39 1024 30.24 854 25.22 4 39.3 71 -0.8 30.5 -89.2 -3.512
23:40 1024 30.24 853 25.19 4.2 39.6 69 -0.9 30.4 -89.2 -3.512
23:41 1024 30.24 853 25.19 4.4 39.9 69 -0.8 30.6 -89.3 -3.516
23:42 1024 30.24 854 25.22 4.5 40.1 69 -0.8 30.6 -89.3 -3.516
23:43 1024 30.24 854 25.22 4.6 40.2 69 -0.7 30.7 -89.3 -3.516
23:44 1024 30.24 854 25.22 4.5 40.2 69 -0.7 30.8 -89.3 -3.516
23:45 1024 30.24 854 25.22 4.5 40.2 69 -0.7 30.8 -89.3 -3.516
23:46 1024 30.24 854 25.22 4.6 40.2 69 -0.6 30.9 -89.3 -3.516
23:47 1024 30.24 854 25.22 4.6 40.2 69 -0.6 30.9 -89.3 -3.516
23:48 1024 30.24 854 25.22 4.6 40.3 68 -0.7 30.8 -89.3 -3.516
23:49 1024 30.24 854 25.22 4.8 40.6 68 -0.7 30.7 -89.3 -3.516
23:50 1024 30.24 854 25.22 5 41.1 66 -0.8 30.5 -89.3 -3.516
23:51 1024 30.24 854 25.22 5.4 41.7 64 -0.8 30.5 -89.3 -3.516
23:52 1024 30.24 854 25.22 5.7 42.2 63 -0.8 30.6 -89.3 -3.516
23:53 1024 30.24 854 25.22 5.9 42.6 62 -0.8 30.6 -89.3 -3.516
23:54 1024 30.24 854 25.22 6.2 43.1 62 -0.6 30.8 -89.3 -3.516
23:55 1024 30.24 854 25.22 6.3 43.4 61 -0.6 30.9 -89.4 -3.52
23:56 1024 30.24 854 25.22 6.4 43.6 61 -0.6 30.9 -89.4 -3.52
23:57 1024 30.24 854 25.22 6.6 43.9 59 -0.8 30.6 -89.4 -3.52
23:58 1024 30.24 854 25.22 6.9 44.4 57 -0.9 30.3 -89.4 -3.52
23:59 1024 30.24 854 25.22 7.1 44.9 56 -0.9 30.3 -89.4 -3.52
24:00 1024 30.24 854 25.22 7.3 45.2 57 -0.7 30.8 -89.5 -3.524